Observation data for Amarillo 7 South Southeast on 06/13/2019      Previous  Date       Current Mesonet Observations  Soil Data  Daily Summary Page  Observations in Plain Language
KAM1 130500Z 11005KT 14/09 A3024 RMK A01 T01360091  RH  074%=      5-min Rain = 0
KAM1 130501Z 11005KT 14/09 A3024 RMK A01 T01360092  RH  075%=      5-min Rain = 0
KAM1 130502Z 11005KT 14/09 A3024 RMK A01 T01350092  RH  075%=      5-min Rain = 0
KAM1 130503Z 11005KT 13/09 A3024 RMK A01 T01340092  RH  075%=      5-min Rain = 0
KAM1 130504Z 11005KT 13/09 A3024 RMK A01 T01340092  RH  075%=      5-min Rain = 0
KAM1 130505Z 11006KT 13/09 A3024 RMK A01 T01340091  RH  076%=      5-min Rain = 0
KAM1 130506Z 11006KT 13/09 A3024 RMK A01 T01340092  RH  076%=      5-min Rain = 0
KAM1 130507Z 11005KT 13/09 A3024 RMK A01 T01340093  RH  076%=      5-min Rain = 0
KAM1 130508Z 11005KT 13/09 A3024 RMK A01 T01340093  RH  076%=      5-min Rain = 0
KAM1 130509Z 11005KT 14/09 A3024 RMK A01 T01350092  RH  075%=      5-min Rain = 0
KAM1 130510Z 11006KT 14/09 A3024 RMK A01 T01360091  RH  074%=      5-min Rain = 0
KAM1 130511Z 10006KT 14/09 A3024 RMK A01 T01360090  RH  074%=      5-min Rain = 0
KAM1 130512Z 10007KT 14/09 A3024 RMK A01 T01370090  RH  073%=      5-min Rain = 0
KAM1 130513Z 11008KT 14/09 A3024 RMK A01 T01370089  RH  073%=      5-min Rain = 0
KAM1 130514Z 11008KT 14/09 A3024 RMK A01 T01370090  RH  073%=      5-min Rain = 0
KAM1 130515Z 11008KT 14/09 A3024 RMK A01 T01370091  RH  074%=      5-min Rain = 0
KAM1 130516Z 11008KT 14/09 A3024 RMK A01 T01370092  RH  074%=      5-min Rain = 0
KAM1 130517Z 11008KT 14/09 A3024 RMK A01 T01370093  RH  074%=      5-min Rain = 0
KAM1 130518Z 12008KT 14/09 A3024 RMK A01 T01380094  RH  075%=      5-min Rain = 0
KAM1 130519Z 12008KT 14/10 A3024 RMK A01 T01380095  RH  075%=      5-min Rain = 0
KAM1 130520Z 12008KT 14/10 A3024 RMK A01 T01390096  RH  075%=      5-min Rain = 0
KAM1 130521Z 12008KT 14/10 A3024 RMK A01 T01380096  RH  076%=      5-min Rain = 0
KAM1 130522Z 12008KT 14/10 A3024 RMK A01 T01390096  RH  076%=      5-min Rain = 0
KAM1 130523Z 12008KT 14/10 A3024 RMK A01 T01380096  RH  076%=      5-min Rain = 0
KAM1 130524Z 11008KT 14/10 A3024 RMK A01 T01380096  RH  076%=      5-min Rain = 0
KAM1 130525Z 11008KT 14/10 A3024 RMK A01 T01370096  RH  076%=      5-min Rain = 0
KAM1 130526Z 11008KT 14/10 A3024 RMK A01 T01370095  RH  076%=      5-min Rain = 0
KAM1 130527Z 11008KT 14/10 A3024 RMK A01 T01370096  RH  076%=      5-min Rain = 0
KAM1 130528Z 11008KT 14/10 A3024 RMK A01 T01370095  RH  076%=      5-min Rain = 0
KAM1 130529Z 11008KT 14/10 A3024 RMK A01 T01370095  RH  076%=      5-min Rain = 0
KAM1 130530Z 11008KT 14/10 A3024 RMK A01 T01370095  RH  075%=      5-min Rain = 0
KAM1 130531Z 11009KT 14/10 A3024 RMK A01 T01380095  RH  075%=      5-min Rain = 0
KAM1 130532Z 11008KT 14/10 A3024 RMK A01 T01380095  RH  075%=      5-min Rain = 0
KAM1 130533Z 11008KT 14/10 A3024 RMK A01 T01390095  RH  075%=      5-min Rain = 0
KAM1 130534Z 12008KT 14/10 A3024 RMK A01 T01390095  RH  075%=      5-min Rain = 0
KAM1 130535Z 12008KT 14/10 A3024 RMK A01 T01400095  RH  074%=      5-min Rain = 0
KAM1 130536Z 12007KT 14/10 A3024 RMK A01 T01400095  RH  074%=      5-min Rain = 0
KAM1 130537Z 12007KT 14/10 A3024 RMK A01 T01400095  RH  074%=      5-min Rain = 0
KAM1 130538Z 12008KT 14/10 A3024 RMK A01 T01400095  RH  074%=      5-min Rain = 0
KAM1 130539Z 12007KT 14/10 A3024 RMK A01 T01400095  RH  074%=      5-min Rain = 0
KAM1 130540Z 12007KT 14/10 A3024 RMK A01 T01400095  RH  074%=      5-min Rain = 0
KAM1 130541Z 12007KT 14/09 A3023 RMK A01 T01400094  RH  074%=      5-min Rain = 0
KAM1 130542Z 12007KT 14/09 A3023 RMK A01 T01390094  RH  074%=      5-min Rain = 0
KAM1 130543Z 11007KT 14/09 A3023 RMK A01 T01400094  RH  074%=      5-min Rain = 0
KAM1 130544Z 12007KT 14/09 A3024 RMK A01 T01390094  RH  074%=      5-min Rain = 0
KAM1 130545Z 12007KT 14/09 A3024 RMK A01 T01390094  RH  074%=      5-min Rain = 0
KAM1 130546Z 12007KT 14/09 A3023 RMK A01 T01390094  RH  074%=      5-min Rain = 0
KAM1 130547Z 12007KT 14/09 A3023 RMK A01 T01390094  RH  074%=      5-min Rain = 0
KAM1 130548Z 12007KT 14/09 A3023 RMK A01 T01380094  RH  075%=      5-min Rain = 0
KAM1 130549Z 12007KT 14/09 A3024 RMK A01 T01370093  RH  075%=      5-min Rain = 0
KAM1 130550Z 13007KT 14/09 A3024 RMK A01 T01360093  RH  075%=      5-min Rain = 0
KAM1 130551Z 13007KT 14/09 A3024 RMK A01 T01360092  RH  075%=      5-min Rain = 0
KAM1 130552Z 13007KT 14/09 A3024 RMK A01 T01360092  RH  075%=      5-min Rain = 0
KAM1 130553Z 13007KT 14/09 A3024 RMK A01 T01360092  RH  075%=      5-min Rain = 0
KAM1 130554Z 13006KT 14/09 A3024 RMK A01 T01360092  RH  075%=      5-min Rain = 0
KAM1 130555Z 13006KT 14/09 A3024 RMK A01 T01360091  RH  074%=      5-min Rain = 0
KAM1 130556Z 13007KT 14/09 A3024 RMK A01 T01360091  RH  074%=      5-min Rain = 0
KAM1 130557Z 13006KT 14/09 A3024 RMK A01 T01370091  RH  074%=      5-min Rain = 0
KAM1 130558Z 14006KT 14/09 A3023 RMK A01 T01370091  RH  074%=      5-min Rain = 0
KAM1 130559Z 14006KT 14/09 A3023 RMK A01 T01380091  RH  074%=      5-min Rain = 0
KAM1 130600Z 14006KT 14/09 A3023 RMK A01 T01380091  RH  073%=      5-min Rain = 0
KAM1 130601Z 14007KT 14/09 A3023 RMK A01 T01380091  RH  074%=      5-min Rain = 0
KAM1 130602Z 14007KT 14/09 A3023 RMK A01 T01370091  RH  074%=      5-min Rain = 0
KAM1 130603Z 14007KT 14/09 A3023 RMK A01 T01370091  RH  074%=      5-min Rain = 0
KAM1 130604Z 14007KT 14/09 A3023 RMK A01 T01360092  RH  074%=      5-min Rain = 0
KAM1 130605Z 14007KT 14/09 A3023 RMK A01 T01360092  RH  075%=      5-min Rain = 0
KAM1 130606Z 14007KT 14/09 A3023 RMK A01 T01360092  RH  075%=      5-min Rain = 0
KAM1 130607Z 14007KT 14/09 A3023 RMK A01 T01350092  RH  075%=      5-min Rain = 0
KAM1 130608Z 14007KT 14/09 A3023 RMK A01 T01350092  RH  075%=      5-min Rain = 0
KAM1 130609Z 13007KT 14/09 A3023 RMK A01 T01350092  RH  075%=      5-min Rain = 0
KAM1 130610Z 14006KT 14/09 A3023 RMK A01 T01350091  RH  074%=      5-min Rain = 0
KAM1 130611Z 14006KT 14/09 A3023 RMK A01 T01360091  RH  074%=      5-min Rain = 0
KAM1 130612Z 14006KT 14/09 A3023 RMK A01 T01360091  RH  074%=      5-min Rain = 0
KAM1 130613Z 13007KT 14/09 A3023 RMK A01 T01360091  RH  074%=      5-min Rain = 0
KAM1 130614Z 13007KT 14/09 A3023 RMK A01 T01360091  RH  074%=      5-min Rain = 0
KAM1 130615Z 13006KT 14/09 A3023 RMK A01 T01360091  RH  074%=      5-min Rain = 0
KAM1 130616Z 13006KT 14/09 A3024 RMK A01 T01360091  RH  075%=      5-min Rain = 0
KAM1 130617Z 13005KT 14/09 A3024 RMK A01 T01350092  RH  075%=      5-min Rain = 0
KAM1 130618Z 13006KT 13/09 A3024 RMK A01 T01340092  RH  076%=      5-min Rain = 0
KAM1 130619Z 13006KT 13/09 A3024 RMK A01 T01330092  RH  076%=      5-min Rain = 0
KAM1 130620Z 13006KT 13/09 A3024 RMK A01 T01330092  RH  076%=      5-min Rain = 0
KAM1 130621Z 13006KT 13/09 A3023 RMK A01 T01320092  RH  076%=      5-min Rain = 0
KAM1 130622Z 13006KT 13/09 A3023 RMK A01 T01310091  RH  077%=      5-min Rain = 0
KAM1 130623Z 13007KT 13/09 A3023 RMK A01 T01310091  RH  077%=      5-min Rain = 0
KAM1 130624Z 13006KT 13/09 A3023 RMK A01 T01310091  RH  077%=      5-min Rain = 0
KAM1 130625Z 13006KT 13/09 A3023 RMK A01 T01300091  RH  077%=      5-min Rain = 0
KAM1 130626Z 13006KT 13/09 A3023 RMK A01 T01300091  RH  077%=      5-min Rain = 0
KAM1 130627Z 13006KT 13/09 A3023 RMK A01 T01290091  RH  078%=      5-min Rain = 0
KAM1 130628Z 13006KT 13/09 A3023 RMK A01 T01290091  RH  078%=      5-min Rain = 0
KAM1 130629Z 13006KT 13/09 A3023 RMK A01 T01280091  RH  078%=      5-min Rain = 0
KAM1 130630Z 12006KT 13/09 A3023 RMK A01 T01280091  RH  078%=      5-min Rain = 0
KAM1 130631Z 13006KT 13/09 A3023 RMK A01 T01280091  RH  078%=      5-min Rain = 0
KAM1 130632Z 13005KT 13/09 A3023 RMK A01 T01270091  RH  078%=      5-min Rain = 0
KAM1 130633Z 13005KT 13/09 A3023 RMK A01 T01270091  RH  079%=      5-min Rain = 0
KAM1 130634Z 13005KT 13/09 A3023 RMK A01 T01270091  RH  079%=      5-min Rain = 0
KAM1 130635Z 13005KT 13/09 A3023 RMK A01 T01270091  RH  079%=      5-min Rain = 0
KAM1 130636Z 13004KT 13/09 A3023 RMK A01 T01270091  RH  078%=      5-min Rain = 0
KAM1 130637Z 13005KT 13/09 A3023 RMK A01 T01280090  RH  078%=      5-min Rain = 0
KAM1 130638Z 13005KT 13/09 A3023 RMK A01 T01290090  RH  077%=      5-min Rain = 0
KAM1 130639Z 13005KT 13/09 A3023 RMK A01 T01290090  RH  077%=      5-min Rain = 0
KAM1 130640Z 13005KT 13/09 A3023 RMK A01 T01300089  RH  076%=      5-min Rain = 0
KAM1 130641Z 12006KT 13/09 A3023 RMK A01 T01300089  RH  076%=      5-min Rain = 0
KAM1 130642Z 12006KT 13/09 A3023 RMK A01 T01300089  RH  076%=      5-min Rain = 0
KAM1 130643Z 12005KT 13/09 A3023 RMK A01 T01300089  RH  076%=      5-min Rain = 0
KAM1 130644Z 12005KT 13/09 A3023 RMK A01 T01290089  RH  077%=      5-min Rain = 0
KAM1 130645Z 13005KT 13/09 A3023 RMK A01 T01290089  RH  077%=      5-min Rain = 0
KAM1 130646Z 13005KT 13/09 A3023 RMK A01 T01280089  RH  077%=      5-min Rain = 0
KAM1 130647Z 13005KT 13/09 A3023 RMK A01 T01280089  RH  077%=      5-min Rain = 0
KAM1 130648Z 13006KT 13/09 A3023 RMK A01 T01270089  RH  078%=      5-min Rain = 0
KAM1 130649Z 13006KT 13/09 A3023 RMK A01 T01270089  RH  078%=      5-min Rain = 0
KAM1 130650Z 13006KT 13/09 A3022 RMK A01 T01270089  RH  078%=      5-min Rain = 0
KAM1 130651Z 14006KT 13/09 A3022 RMK A01 T01270089  RH  078%=      5-min Rain = 0
KAM1 130652Z 14006KT 13/09 A3022 RMK A01 T01270088  RH  077%=      5-min Rain = 0
KAM1 130653Z 14006KT 13/09 A3022 RMK A01 T01260088  RH  078%=      5-min Rain = 0
KAM1 130654Z 13007KT 13/09 A3022 RMK A01 T01270089  RH  078%=      5-min Rain = 0
KAM1 130655Z 13006KT 13/09 A3022 RMK A01 T01260088  RH  077%=      5-min Rain = 0
KAM1 130656Z 14007KT 13/09 A3022 RMK A01 T01270088  RH  077%=      5-min Rain = 0
KAM1 130657Z 13006KT 13/09 A3022 RMK A01 T01270089  RH  078%=      5-min Rain = 0
KAM1 130658Z 13006KT 13/09 A3022 RMK A01 T01270089  RH  078%=      5-min Rain = 0
KAM1 130659Z 13006KT 13/09 A3022 RMK A01 T01270090  RH  078%=      5-min Rain = 0
KAM1 130700Z 13006KT 13/09 A3022 RMK A01 T01270091  RH  078%=      5-min Rain = 0
KAM1 130701Z 13006KT 13/09 A3022 RMK A01 T01270090  RH  079%=      5-min Rain = 0
KAM1 130702Z 13006KT 13/09 A3022 RMK A01 T01270090  RH  078%=      5-min Rain = 0
KAM1 130703Z 14006KT 13/09 A3022 RMK A01 T01270090  RH  078%=      5-min Rain = 0
KAM1 130704Z 14006KT 13/09 A3022 RMK A01 T01280090  RH  078%=      5-min Rain = 0
KAM1 130705Z 14007KT 13/09 A3022 RMK A01 T01280090  RH  077%=      5-min Rain = 0
KAM1 130706Z 14007KT 13/09 A3022 RMK A01 T01290090  RH  077%=      5-min Rain = 0
KAM1 130707Z 14006KT 13/09 A3022 RMK A01 T01300090  RH  077%=      5-min Rain = 0
KAM1 130708Z 14007KT 13/09 A3022 RMK A01 T01300090  RH  076%=      5-min Rain = 0
KAM1 130709Z 14007KT 13/09 A3022 RMK A01 T01310090  RH  076%=      5-min Rain = 0
KAM1 130710Z 14006KT 13/09 A3022 RMK A01 T01310089  RH  076%=      5-min Rain = 0
KAM1 130711Z 14007KT 13/09 A3022 RMK A01 T01320089  RH  075%=      5-min Rain = 0
KAM1 130712Z 14006KT 13/09 A3022 RMK A01 T01330089  RH  075%=      5-min Rain = 0
KAM1 130713Z 14006KT 13/09 A3022 RMK A01 T01330089  RH  075%=      5-min Rain = 0
KAM1 130714Z 14006KT 13/09 A3022 RMK A01 T01330089  RH  075%=      5-min Rain = 0
KAM1 130715Z 14006KT 13/09 A3022 RMK A01 T01330089  RH  074%=      5-min Rain = 0
KAM1 130716Z 14006KT 13/09 A3022 RMK A01 T01330089  RH  074%=      5-min Rain = 0
KAM1 130717Z 14006KT 13/09 A3022 RMK A01 T01340089  RH  074%=      5-min Rain = 0
KAM1 130718Z 14006KT 13/09 A3022 RMK A01 T01340089  RH  074%=      5-min Rain = 0
KAM1 130719Z 14006KT 13/09 A3022 RMK A01 T01340089  RH  075%=      5-min Rain = 0
KAM1 130720Z 14006KT 13/09 A3022 RMK A01 T01330089  RH  075%=      5-min Rain = 0
KAM1 130721Z 14006KT 13/09 A3022 RMK A01 T01320089  RH  075%=      5-min Rain = 0
KAM1 130722Z 14005KT 13/09 A3022 RMK A01 T01310089  RH  076%=      5-min Rain = 0
KAM1 130723Z 14006KT 13/09 A3022 RMK A01 T01310089  RH  076%=      5-min Rain = 0
KAM1 130724Z 14005KT 13/09 A3022 RMK A01 T01310090  RH  076%=      5-min Rain = 0
KAM1 130725Z 14005KT 13/09 A3022 RMK A01 T01300089  RH  076%=      5-min Rain = 0
KAM1 130726Z 15006KT 13/09 A3022 RMK A01 T01290089  RH  077%=      5-min Rain = 0
KAM1 130727Z 14006KT 13/09 A3022 RMK A01 T01290089  RH  077%=      5-min Rain = 0
KAM1 130728Z 14006KT 13/09 A3022 RMK A01 T01280089  RH  077%=      5-min Rain = 0
KAM1 130729Z 14006KT 13/09 A3022 RMK A01 T01280089  RH  077%=      5-min Rain = 0
KAM1 130730Z 14005KT 13/09 A3022 RMK A01 T01280089  RH  077%=      5-min Rain = 0
KAM1 130731Z 14006KT 13/09 A3022 RMK A01 T01280089  RH  077%=      5-min Rain = 0
KAM1 130732Z 14006KT 13/09 A3022 RMK A01 T01280089  RH  077%=      5-min Rain = 0
KAM1 130733Z 15006KT 13/09 A3022 RMK A01 T01290089  RH  077%=      5-min Rain = 0
KAM1 130734Z 15006KT 13/09 A3022 RMK A01 T01290089  RH  076%=      5-min Rain = 0
KAM1 130735Z 15006KT 13/09 A3022 RMK A01 T01300089  RH  076%=      5-min Rain = 0
KAM1 130736Z 15006KT 13/09 A3022 RMK A01 T01290088  RH  076%=      5-min Rain = 0
KAM1 130737Z 15006KT 13/09 A3023 RMK A01 T01300089  RH  076%=      5-min Rain = 0
KAM1 130738Z 15006KT 13/09 A3023 RMK A01 T01290088  RH  076%=      5-min Rain = 0
KAM1 130739Z 15006KT 13/09 A3023 RMK A01 T01290087  RH  076%=      5-min Rain = 0
KAM1 130740Z 15006KT 13/09 A3023 RMK A01 T01290087  RH  076%=      5-min Rain = 0
KAM1 130741Z 15005KT 13/09 A3023 RMK A01 T01290087  RH  076%=      5-min Rain = 0
KAM1 130742Z 14006KT 13/09 A3023 RMK A01 T01280087  RH  076%=      5-min Rain = 0
KAM1 130743Z 14006KT 13/09 A3023 RMK A01 T01280087  RH  076%=      5-min Rain = 0
KAM1 130744Z 14005KT 13/09 A3023 RMK A01 T01280087  RH  076%=      5-min Rain = 0
KAM1 130745Z 13005KT 13/09 A3023 RMK A01 T01280087  RH  076%=      5-min Rain = 0
KAM1 130746Z 13005KT 13/09 A3023 RMK A01 T01280088  RH  076%=      5-min Rain = 0
KAM1 130747Z 13005KT 13/09 A3023 RMK A01 T01280088  RH  077%=      5-min Rain = 0
KAM1 130748Z 14005KT 13/09 A3023 RMK A01 T01280088  RH  077%=      5-min Rain = 0
KAM1 130749Z 14005KT 13/09 A3023 RMK A01 T01280088  RH  076%=      5-min Rain = 0
KAM1 130750Z 14005KT 13/09 A3023 RMK A01 T01290088  RH  076%=      5-min Rain = 0
KAM1 130751Z 14005KT 13/09 A3023 RMK A01 T01290088  RH  076%=      5-min Rain = 0
KAM1 130752Z 14005KT 13/09 A3023 RMK A01 T01290088  RH  076%=      5-min Rain = 0
KAM1 130753Z 14005KT 13/09 A3023 RMK A01 T01290088  RH  076%=      5-min Rain = 0
KAM1 130754Z 14005KT 13/09 A3023 RMK A01 T01290088  RH  076%=      5-min Rain = 0
KAM1 130755Z 14005KT 13/09 A3023 RMK A01 T01290089  RH  076%=      5-min Rain = 0
KAM1 130756Z 14004KT 13/09 A3023 RMK A01 T01290089  RH  076%=      5-min Rain = 0
KAM1 130757Z 13004KT 13/09 A3023 RMK A01 T01290088  RH  076%=      5-min Rain = 0
KAM1 130758Z 13004KT 13/09 A3023 RMK A01 T01300089  RH  076%=      5-min Rain = 0
KAM1 130759Z 13004KT 13/09 A3022 RMK A01 T01300089  RH  076%=      5-min Rain = 0
KAM1 130800Z 13005KT 13/09 A3022 RMK A01 T01300089  RH  076%=      5-min Rain = 0
KAM1 130801Z 12005KT 13/09 A3022 RMK A01 T01300089  RH  076%=      5-min Rain = 0
KAM1 130802Z 12005KT 13/09 A3022 RMK A01 T01290089  RH  077%=      5-min Rain = 0
KAM1 130803Z 12005KT 13/09 A3022 RMK A01 T01280089  RH  077%=      5-min Rain = 0
KAM1 130804Z 12004KT 13/09 A3022 RMK A01 T01280090  RH  078%=      5-min Rain = 0
KAM1 130805Z 12004KT 13/09 A3022 RMK A01 T01280090  RH  078%=      5-min Rain = 0
KAM1 130806Z 11004KT 13/09 A3022 RMK A01 T01280090  RH  078%=      5-min Rain = 0
KAM1 130807Z 11004KT 13/09 A3022 RMK A01 T01280091  RH  078%=      5-min Rain = 0
KAM1 130808Z 11003KT 13/09 A3022 RMK A01 T01290090  RH  077%=      5-min Rain = 0
KAM1 130809Z 11003KT 13/09 A3023 RMK A01 T01280089  RH  077%=      5-min Rain = 0
KAM1 130810Z 11003KT 13/09 A3023 RMK A01 T01290089  RH  077%=      5-min Rain = 0
KAM1 130811Z 11003KT 13/09 A3023 RMK A01 T01290088  RH  076%=      5-min Rain = 0
KAM1 130812Z 12003KT 13/09 A3023 RMK A01 T01290089  RH  077%=      5-min Rain = 0
KAM1 130813Z 12002KT 13/09 A3023 RMK A01 T01290089  RH  077%=      5-min Rain = 0
KAM1 130814Z 12002KT 13/09 A3023 RMK A01 T01290089  RH  076%=      5-min Rain = 0
KAM1 130815Z 12002KT 13/09 A3023 RMK A01 T01290089  RH  076%=      5-min Rain = 0
KAM1 130816Z 13002KT 13/09 A3023 RMK A01 T01290089  RH  076%=      5-min Rain = 0
KAM1 130817Z 13002KT 13/09 A3023 RMK A01 T01290088  RH  076%=      5-min Rain = 0
KAM1 130818Z 13002KT 13/09 A3023 RMK A01 T01300088  RH  076%=      5-min Rain = 0
KAM1 130819Z 14002KT 13/09 A3023 RMK A01 T01310088  RH  075%=      5-min Rain = 0
KAM1 130820Z 15002KT 13/09 A3023 RMK A01 T01320087  RH  074%=      5-min Rain = 0
KAM1 130821Z 15002KT 13/09 A3023 RMK A01 T01340089  RH  074%=      5-min Rain = 0
KAM1 130822Z 16002KT 13/09 A3023 RMK A01 T01330090  RH  075%=      5-min Rain = 0
KAM1 130823Z 16002KT 13/09 A3023 RMK A01 T01330089  RH  075%=      5-min Rain = 0
KAM1 130824Z 17001KT 13/09 A3023 RMK A01 T01320088  RH  074%=      5-min Rain = 0
KAM1 130825Z 16001KT 13/09 A3023 RMK A01 T01330088  RH  074%=      5-min Rain = 0
KAM1 130826Z 15002KT 13/09 A3023 RMK A01 T01320090  RH  075%=      5-min Rain = 0
KAM1 130827Z 14001KT 13/10 A3023 RMK A01 T01320095  RH  078%=      5-min Rain = 0
KAM1 130828Z 14002KT 13/09 A3023 RMK A01 T01310092  RH  077%=      5-min Rain = 0
KAM1 130829Z 15002KT 13/10 A3023 RMK A01 T01300097  RH  080%=      5-min Rain = 0
KAM1 130830Z 14002KT 13/09 A3023 RMK A01 T01300094  RH  079%=      5-min Rain = 0
KAM1 130831Z 14003KT 13/09 A3023 RMK A01 T01290092  RH  078%=      5-min Rain = 0
KAM1 130832Z 13003KT 13/09 A3023 RMK A01 T01290090  RH  077%=      5-min Rain = 0
KAM1 130833Z 13003KT 13/09 A3023 RMK A01 T01290089  RH  077%=      5-min Rain = 0
KAM1 130834Z 12004KT 13/09 A3023 RMK A01 T01290089  RH  076%=      5-min Rain = 0
KAM1 130835Z 12004KT 13/09 A3023 RMK A01 T01300089  RH  076%=      5-min Rain = 0
KAM1 130836Z 12003KT 13/09 A3023 RMK A01 T01300089  RH  076%=      5-min Rain = 0
KAM1 130837Z 12003KT 13/09 A3023 RMK A01 T01300090  RH  076%=      5-min Rain = 0
KAM1 130838Z 13003KT 13/09 A3023 RMK A01 T01300090  RH  077%=      5-min Rain = 0
KAM1 130839Z 13003KT 13/09 A3023 RMK A01 T01290090  RH  077%=      5-min Rain = 0
KAM1 130840Z 13004KT 13/09 A3023 RMK A01 T01290090  RH  077%=      5-min Rain = 0
KAM1 130841Z 13004KT 13/09 A3023 RMK A01 T01290091  RH  077%=      5-min Rain = 0
KAM1 130842Z 13004KT 13/09 A3023 RMK A01 T01290091  RH  077%=      5-min Rain = 0
KAM1 130843Z 14004KT 13/09 A3023 RMK A01 T01300091  RH  077%=      5-min Rain = 0
KAM1 130844Z 14004KT 13/09 A3023 RMK A01 T01310092  RH  077%=      5-min Rain = 0
KAM1 130845Z 14004KT 13/09 A3023 RMK A01 T01310092  RH  077%=      5-min Rain = 0
KAM1 130846Z 14005KT 13/09 A3022 RMK A01 T01310092  RH  077%=      5-min Rain = 0
KAM1 130847Z 14005KT 13/09 A3022 RMK A01 T01300092  RH  078%=      5-min Rain = 0
KAM1 130848Z 14004KT 13/09 A3022 RMK A01 T01300092  RH  078%=      5-min Rain = 0
KAM1 130849Z 14004KT 13/09 A3022 RMK A01 T01290093  RH  079%=      5-min Rain = 0
KAM1 130850Z 14004KT 13/09 A3022 RMK A01 T01280092  RH  079%=      5-min Rain = 0
KAM1 130851Z 14004KT 13/09 A3022 RMK A01 T01270092  RH  079%=      5-min Rain = 0
KAM1 130852Z 15004KT 13/09 A3022 RMK A01 T01270093  RH  080%=      5-min Rain = 0
KAM1 130853Z 15004KT 13/09 A3022 RMK A01 T01260093  RH  080%=      5-min Rain = 0
KAM1 130854Z 15004KT 13/09 A3022 RMK A01 T01260093  RH  081%=      5-min Rain = 0
KAM1 130855Z 15005KT 13/09 A3022 RMK A01 T01250094  RH  081%=      5-min Rain = 0
KAM1 130856Z 15004KT 12/10 A3022 RMK A01 T01240095  RH  082%=      5-min Rain = 0
KAM1 130857Z 16004KT 12/10 A3022 RMK A01 T01240095  RH  083%=      5-min Rain = 0
KAM1 130858Z 16004KT 12/10 A3022 RMK A01 T01230096  RH  084%=      5-min Rain = 0
KAM1 130859Z 16004KT 12/10 A3022 RMK A01 T01230098  RH  085%=      5-min Rain = 0
KAM1 130900Z 16003KT 12/10 A3022 RMK A01 T01220099  RH  086%=      5-min Rain = 0
KAM1 130901Z 16003KT 12/10 A3022 RMK A01 T01210100  RH  087%=      5-min Rain = 0
KAM1 130902Z 16004KT 12/10 A3022 RMK A01 T01210100  RH  087%=      5-min Rain = 0
KAM1 130903Z 16004KT 12/10 A3022 RMK A01 T01220100  RH  086%=      5-min Rain = 0
KAM1 130904Z 16003KT 12/10 A3022 RMK A01 T01220100  RH  086%=      5-min Rain = 0
KAM1 130905Z 17003KT 12/10 A3022 RMK A01 T01220100  RH  086%=      5-min Rain = 0
KAM1 130906Z 18003KT 12/10 A3022 RMK A01 T01220099  RH  086%=      5-min Rain = 0
KAM1 130907Z 19003KT 12/10 A3022 RMK A01 T01230099  RH  085%=      5-min Rain = 0
KAM1 130908Z 19003KT 12/10 A3022 RMK A01 T01240098  RH  084%=      5-min Rain = 0
KAM1 130909Z 18003KT 13/10 A3022 RMK A01 T01250097  RH  084%=      5-min Rain = 0
KAM1 130910Z 18003KT 13/10 A3022 RMK A01 T01250096  RH  082%=      5-min Rain = 0
KAM1 130911Z 18003KT 13/10 A3022 RMK A01 T01260095  RH  082%=      5-min Rain = 0
KAM1 130912Z 18003KT 13/09 A3022 RMK A01 T01270094  RH  081%=      5-min Rain = 0
KAM1 130913Z 18003KT 13/09 A3022 RMK A01 T01270094  RH  080%=      5-min Rain = 0
KAM1 130914Z 18002KT 13/09 A3022 RMK A01 T01270094  RH  080%=      5-min Rain = 0
KAM1 130915Z 18003KT 13/09 A3022 RMK A01 T01270093  RH  080%=      5-min Rain = 0
KAM1 130916Z 18003KT 13/09 A3022 RMK A01 T01270093  RH  080%=      5-min Rain = 0
KAM1 130917Z 18003KT 13/09 A3022 RMK A01 T01270093  RH  080%=      5-min Rain = 0
KAM1 130918Z 18003KT 13/09 A3022 RMK A01 T01280093  RH  079%=      5-min Rain = 0
KAM1 130919Z 18003KT 13/09 A3022 RMK A01 T01280093  RH  079%=      5-min Rain = 0
KAM1 130920Z 18003KT 13/09 A3022 RMK A01 T01280093  RH  079%=      5-min Rain = 0
KAM1 130921Z 18003KT 13/09 A3022 RMK A01 T01290093  RH  079%=      5-min Rain = 0
KAM1 130922Z 18003KT 13/09 A3022 RMK A01 T01290093  RH  079%=      5-min Rain = 0
KAM1 130923Z 18003KT 13/09 A3022 RMK A01 T01290093  RH  079%=      5-min Rain = 0
KAM1 130924Z 18003KT 13/09 A3022 RMK A01 T01290093  RH  078%=      5-min Rain = 0
KAM1 130925Z 18003KT 13/09 A3022 RMK A01 T01300093  RH  078%=      5-min Rain = 0
KAM1 130926Z 18003KT 13/09 A3022 RMK A01 T01290093  RH  078%=      5-min Rain = 0
KAM1 130927Z 18003KT 13/09 A3022 RMK A01 T01290093  RH  078%=      5-min Rain = 0
KAM1 130928Z 17003KT 13/09 A3022 RMK A01 T01290093  RH  078%=      5-min Rain = 0
KAM1 130929Z 17003KT 13/09 A3022 RMK A01 T01290092  RH  078%=      5-min Rain = 0
KAM1 130930Z 17003KT 13/09 A3022 RMK A01 T01290092  RH  078%=      5-min Rain = 0
KAM1 130931Z 17002KT 13/09 A3022 RMK A01 T01290092  RH  078%=      5-min Rain = 0
KAM1 130932Z 17002KT 13/09 A3022 RMK A01 T01290092  RH  079%=      5-min Rain = 0
KAM1 130933Z 17002KT 13/09 A3022 RMK A01 T01280093  RH  079%=      5-min Rain = 0
KAM1 130934Z 16002KT 13/09 A3022 RMK A01 T01270093  RH  080%=      5-min Rain = 0
KAM1 130935Z 16002KT 13/09 A3022 RMK A01 T01260092  RH  080%=      5-min Rain = 0
KAM1 130936Z 16002KT 13/09 A3022 RMK A01 T01250093  RH  081%=      5-min Rain = 0
KAM1 130937Z 16002KT 13/09 A3022 RMK A01 T01250093  RH  081%=      5-min Rain = 0
KAM1 130938Z 17002KT 12/09 A3022 RMK A01 T01240093  RH  081%=      5-min Rain = 0
KAM1 130939Z 17002KT 13/09 A3022 RMK A01 T01250093  RH  081%=      5-min Rain = 0
KAM1 130940Z 17002KT 13/09 A3022 RMK A01 T01250093  RH  081%=      5-min Rain = 0
KAM1 130941Z 17002KT 13/09 A3023 RMK A01 T01250092  RH  081%=      5-min Rain = 0
KAM1 130942Z 17002KT 13/09 A3023 RMK A01 T01250093  RH  080%=      5-min Rain = 0
KAM1 130943Z 17002KT 13/09 A3023 RMK A01 T01250092  RH  080%=      5-min Rain = 0
KAM1 130944Z 17002KT 13/09 A3023 RMK A01 T01250093  RH  080%=      5-min Rain = 0
KAM1 130945Z 18002KT 13/09 A3023 RMK A01 T01250093  RH  081%=      5-min Rain = 0
KAM1 130946Z 18002KT 13/09 A3023 RMK A01 T01250093  RH  081%=      5-min Rain = 0
KAM1 130947Z 18002KT 12/09 A3023 RMK A01 T01240093  RH  082%=      5-min Rain = 0
KAM1 130948Z 19003KT 12/09 A3023 RMK A01 T01230094  RH  082%=      5-min Rain = 0
KAM1 130949Z 19003KT 12/10 A3023 RMK A01 T01220095  RH  083%=      5-min Rain = 0
KAM1 130950Z 19003KT 12/10 A3023 RMK A01 T01220096  RH  084%=      5-min Rain = 0
KAM1 130951Z 19003KT 12/10 A3023 RMK A01 T01220096  RH  084%=      5-min Rain = 0
KAM1 130952Z 19002KT 12/10 A3023 RMK A01 T01220097  RH  085%=      5-min Rain = 0
KAM1 130953Z 19002KT 12/10 A3023 RMK A01 T01220095  RH  083%=      5-min Rain = 0
KAM1 130954Z 19002KT 12/09 A3023 RMK A01 T01230094  RH  082%=      5-min Rain = 0
KAM1 130955Z 19002KT 12/09 A3023 RMK A01 T01240093  RH  082%=      5-min Rain = 0
KAM1 130956Z 19002KT 13/09 A3023 RMK A01 T01250094  RH  081%=      5-min Rain = 0
KAM1 130957Z 19002KT 13/09 A3023 RMK A01 T01250094  RH  081%=      5-min Rain = 0
KAM1 130958Z 19002KT 13/09 A3023 RMK A01 T01250094  RH  081%=      5-min Rain = 0
KAM1 130959Z 19002KT 13/10 A3023 RMK A01 T01250095  RH  082%=      5-min Rain = 0
KAM1 131000Z 19002KT 13/10 A3023 RMK A01 T01250096  RH  082%=      5-min Rain = 0
KAM1 131001Z 19002KT 13/10 A3023 RMK A01 T01250096  RH  082%=      5-min Rain = 0
KAM1 131002Z 19002KT 13/10 A3023 RMK A01 T01250096  RH  082%=      5-min Rain = 0
KAM1 131003Z 19002KT 12/10 A3023 RMK A01 T01240096  RH  083%=      5-min Rain = 0
KAM1 131004Z 19002KT 12/09 A3023 RMK A01 T01230094  RH  083%=      5-min Rain = 0
KAM1 131005Z 19003KT 12/10 A3023 RMK A01 T01230095  RH  083%=      5-min Rain = 0
KAM1 131006Z 19003KT 12/10 A3023 RMK A01 T01230095  RH  083%=      5-min Rain = 0
KAM1 131007Z 19003KT 12/09 A3023 RMK A01 T01230094  RH  082%=      5-min Rain = 0
KAM1 131008Z 19003KT 12/09 A3023 RMK A01 T01240094  RH  082%=      5-min Rain = 0
KAM1 131009Z 20003KT 12/09 A3023 RMK A01 T01230094  RH  082%=      5-min Rain = 0
KAM1 131010Z 20003KT 12/10 A3023 RMK A01 T01230095  RH  083%=      5-min Rain = 0
KAM1 131011Z 20003KT 12/10 A3023 RMK A01 T01230095  RH  083%=      5-min Rain = 0
KAM1 131012Z 20003KT 12/09 A3023 RMK A01 T01220094  RH  083%=      5-min Rain = 0
KAM1 131013Z 19003KT 12/09 A3023 RMK A01 T01200093  RH  084%=      5-min Rain = 0
KAM1 131014Z 19003KT 12/09 A3023 RMK A01 T01180093  RH  085%=      5-min Rain = 0
KAM1 131015Z 19003KT 12/09 A3023 RMK A01 T01170093  RH  085%=      5-min Rain = 0
KAM1 131016Z 19004KT 12/09 A3023 RMK A01 T01160093  RH  086%=      5-min Rain = 0
KAM1 131017Z 19004KT 12/09 A3023 RMK A01 T01160094  RH  086%=      5-min Rain = 0
KAM1 131018Z 19004KT 12/09 A3023 RMK A01 T01160094  RH  086%=      5-min Rain = 0
KAM1 131019Z 19004KT 12/09 A3023 RMK A01 T01160094  RH  086%=      5-min Rain = 0
KAM1 131020Z 19004KT 12/09 A3023 RMK A01 T01160093  RH  086%=      5-min Rain = 0
KAM1 131021Z 19004KT 12/09 A3023 RMK A01 T01150093  RH  086%=      5-min Rain = 0
KAM1 131022Z 19004KT 12/09 A3023 RMK A01 T01150093  RH  086%=      5-min Rain = 0
KAM1 131023Z 19004KT 12/09 A3023 RMK A01 T01150093  RH  086%=      5-min Rain = 0
KAM1 131024Z 19004KT 12/09 A3023 RMK A01 T01150093  RH  086%=      5-min Rain = 0
KAM1 131025Z 19004KT 12/09 A3023 RMK A01 T01150093  RH  086%=      5-min Rain = 0
KAM1 131026Z 19004KT 11/09 A3023 RMK A01 T01140093  RH  086%=      5-min Rain = 0
KAM1 131027Z 19004KT 11/09 A3023 RMK A01 T01140093  RH  087%=      5-min Rain = 0
KAM1 131028Z 19005KT 11/09 A3023 RMK A01 T01130093  RH  087%=      5-min Rain = 0
KAM1 131029Z 19005KT 11/09 A3023 RMK A01 T01130093  RH  088%=      5-min Rain = 0
KAM1 131030Z 19005KT 11/09 A3023 RMK A01 T01130094  RH  088%=      5-min Rain = 0
KAM1 131031Z 18005KT 11/09 A3023 RMK A01 T01140094  RH  088%=      5-min Rain = 0
KAM1 131032Z 18004KT 11/09 A3023 RMK A01 T01140094  RH  087%=      5-min Rain = 0
KAM1 131033Z 18004KT 11/09 A3023 RMK A01 T01140093  RH  087%=      5-min Rain = 0
KAM1 131034Z 18004KT 11/09 A3023 RMK A01 T01140093  RH  087%=      5-min Rain = 0
KAM1 131035Z 18004KT 11/09 A3023 RMK A01 T01130093  RH  087%=      5-min Rain = 0
KAM1 131036Z 18004KT 11/09 A3023 RMK A01 T01120092  RH  087%=      5-min Rain = 0
KAM1 131037Z 18004KT 11/09 A3023 RMK A01 T01120092  RH  088%=      5-min Rain = 0
KAM1 131038Z 18003KT 11/09 A3023 RMK A01 T01110092  RH  088%=      5-min Rain = 0
KAM1 131039Z 18003KT 11/09 A3023 RMK A01 T01100092  RH  088%=      5-min Rain = 0
KAM1 131040Z 18003KT 11/09 A3023 RMK A01 T01100092  RH  089%=      5-min Rain = 0
KAM1 131041Z 18003KT 11/09 A3023 RMK A01 T01090092  RH  089%=      5-min Rain = 0
KAM1 131042Z 18003KT 11/09 A3023 RMK A01 T01090092  RH  089%=      5-min Rain = 0
KAM1 131043Z 18003KT 11/09 A3023 RMK A01 T01080093  RH  090%=      5-min Rain = 0
KAM1 131044Z 18003KT 11/09 A3023 RMK A01 T01080094  RH  091%=      5-min Rain = 0
KAM1 131045Z 18003KT 11/10 A3023 RMK A01 T01080095  RH  091%=      5-min Rain = 0
KAM1 131046Z 18003KT 11/10 A3023 RMK A01 T01090095  RH  092%=      5-min Rain = 0
KAM1 131047Z 18003KT 11/10 A3023 RMK A01 T01090096  RH  092%=      5-min Rain = 0
KAM1 131048Z 17003KT 11/10 A3023 RMK A01 T01100097  RH  091%=      5-min Rain = 0
KAM1 131049Z 17003KT 11/10 A3023 RMK A01 T01110096  RH  091%=      5-min Rain = 0
KAM1 131050Z 17003KT 11/10 A3023 RMK A01 T01120096  RH  090%=      5-min Rain = 0
KAM1 131051Z 17003KT 11/10 A3023 RMK A01 T01130095  RH  089%=      5-min Rain = 0
KAM1 131052Z 17003KT 11/10 A3023 RMK A01 T01140095  RH  088%=      5-min Rain = 0
KAM1 131053Z 17003KT 11/09 A3023 RMK A01 T01140094  RH  088%=      5-min Rain = 0
KAM1 131054Z 17004KT 11/09 A3023 RMK A01 T01140094  RH  087%=      5-min Rain = 0
KAM1 131055Z 17004KT 11/09 A3023 RMK A01 T01140093  RH  087%=      5-min Rain = 0
KAM1 131056Z 17003KT 11/09 A3023 RMK A01 T01140093  RH  087%=      5-min Rain = 0
KAM1 131057Z 17003KT 11/09 A3023 RMK A01 T01140092  RH  086%=      5-min Rain = 0
KAM1 131058Z 17004KT 11/09 A3023 RMK A01 T01140092  RH  086%=      5-min Rain = 0
KAM1 131059Z 17003KT 12/09 A3023 RMK A01 T01150092  RH  086%=      5-min Rain = 0
KAM1 131100Z 17003KT 11/09 A3023 RMK A01 T01140092  RH  086%=      5-min Rain = 0
KAM1 131101Z 17003KT 11/09 A3023 RMK A01 T01140092  RH  086%=      5-min Rain = 0
KAM1 131102Z 16003KT 11/09 A3023 RMK A01 T01120089  RH  085%=      5-min Rain = 0
KAM1 131103Z 15002KT 11/09 A3023 RMK A01 T01090088  RH  087%=      5-min Rain = 0
KAM1 131104Z 14002KT 11/09 A3023 RMK A01 T01080092  RH  090%=      5-min Rain = 0
KAM1 131105Z 13002KT 11/09 A3023 RMK A01 T01080094  RH  091%=      5-min Rain = 0
KAM1 131106Z 14002KT 11/09 A3023 RMK A01 T01090094  RH  091%=      5-min Rain = 0
KAM1 131107Z 14002KT 11/10 A3023 RMK A01 T01110096  RH  090%=      5-min Rain = 0
KAM1 131108Z 15003KT 11/10 A3023 RMK A01 T01130096  RH  089%=      5-min Rain = 0
KAM1 131109Z 14003KT 11/10 A3023 RMK A01 T01140095  RH  088%=      5-min Rain = 0
KAM1 131110Z 15003KT 12/09 A3023 RMK A01 T01160094  RH  087%=      5-min Rain = 0
KAM1 131111Z 15003KT 12/09 A3023 RMK A01 T01160093  RH  085%=      5-min Rain = 0
KAM1 131112Z 15004KT 12/09 A3023 RMK A01 T01170093  RH  085%=      5-min Rain = 0
KAM1 131113Z 14004KT 12/09 A3023 RMK A01 T01180093  RH  085%=      5-min Rain = 0
KAM1 131114Z 14003KT 12/09 A3023 RMK A01 T01170093  RH  085%=      5-min Rain = 0
KAM1 131115Z 12003KT 12/09 A3023 RMK A01 T01170093  RH  086%=      5-min Rain = 0
KAM1 131116Z 12002KT 12/09 A3022 RMK A01 T01150094  RH  087%=      5-min Rain = 0
KAM1 131117Z 12002KT 11/10 A3022 RMK A01 T01140096  RH  089%=      5-min Rain = 0
KAM1 131118Z 13003KT 11/10 A3022 RMK A01 T01130095  RH  089%=      5-min Rain = 0
KAM1 131119Z 12003KT 11/10 A3022 RMK A01 T01110095  RH  090%=      5-min Rain = 0
KAM1 131120Z 12004KT 11/09 A3022 RMK A01 T01090094  RH  090%=      5-min Rain = 0
KAM1 131121Z 13004KT 11/09 A3022 RMK A01 T01060093  RH  092%=      5-min Rain = 0
KAM1 131122Z 13004KT 11/10 A3022 RMK A01 T01050098  RH  095%=      5-min Rain = 0
KAM1 131123Z 14004KT 11/10 A3022 RMK A01 T01050101  RH  097%=      5-min Rain = 0
KAM1 131124Z 14004KT 10/10 A3022 RMK A01 T01040103  RH  099%=      5-min Rain = 0
KAM1 131125Z 14004KT 11/10 A3023 RMK A01 T01050104  RH  099%=      5-min Rain = 0
KAM1 131126Z 14004KT 11/10 A3023 RMK A01 T01060104  RH  099%=      5-min Rain = 0
KAM1 131127Z 14004KT 11/10 A3023 RMK A01 T01070104  RH  098%=      5-min Rain = 0
KAM1 131128Z 14004KT 11/10 A3023 RMK A01 T01070102  RH  097%=      5-min Rain = 0
KAM1 131129Z 14004KT 11/10 A3023 RMK A01 T01060102  RH  097%=      5-min Rain = 0
KAM1 131130Z 14004KT 11/10 A3023 RMK A01 T01060101  RH  097%=      5-min Rain = 0
KAM1 131131Z 15003KT 11/10 A3023 RMK A01 T01050100  RH  097%=      5-min Rain = 0
KAM1 131132Z 15003KT 11/10 A3023 RMK A01 T01050101  RH  098%=      5-min Rain = 0
KAM1 131133Z 15003KT 11/10 A3023 RMK A01 T01050102  RH  099%=      5-min Rain = 0
KAM1 131134Z 15004KT 10/10 A3023 RMK A01 T01040101  RH  097%=      5-min Rain = 0
KAM1 131135Z 15004KT 10/10 A3023 RMK A01 T01040098  RH  096%=      5-min Rain = 0
KAM1 131136Z 15004KT 10/10 A3023 RMK A01 T01040097  RH  096%=      5-min Rain = 0
KAM1 131137Z 15004KT 10/10 A3023 RMK A01 T01030098  RH  096%=      5-min Rain = 0
KAM1 131138Z 15004KT 10/10 A3023 RMK A01 T01030097  RH  096%=      5-min Rain = 0
KAM1 131139Z 15004KT 10/10 A3023 RMK A01 T01030095  RH  095%=      5-min Rain = 0
KAM1 131140Z 15004KT 10/09 A3023 RMK A01 T01020093  RH  094%=      5-min Rain = 0
KAM1 131141Z 14004KT 10/09 A3023 RMK A01 T01010092  RH  094%=      5-min Rain = 0
KAM1 131142Z 14003KT 10/09 A3023 RMK A01 T01000092  RH  095%=      5-min Rain = 0
KAM1 131143Z 14003KT 10/09 A3023 RMK A01 T01000093  RH  096%=      5-min Rain = 0
KAM1 131144Z 14003KT 10/09 A3022 RMK A01 T00990094  RH  097%=      5-min Rain = 0
KAM1 131145Z 13003KT 10/10 A3022 RMK A01 T00990095  RH  097%=      5-min Rain = 0
KAM1 131146Z 13003KT 10/10 A3022 RMK A01 T00990095  RH  097%=      5-min Rain = 0
KAM1 131147Z 13002KT 10/10 A3022 RMK A01 T01000095  RH  097%=      5-min Rain = 0
KAM1 131148Z 13003KT 10/10 A3022 RMK A01 T01010096  RH  097%=      5-min Rain = 0
KAM1 131149Z 13003KT 10/10 A3022 RMK A01 T01010095  RH  096%=      5-min Rain = 0
KAM1 131150Z 14003KT 10/10 A3022 RMK A01 T01020095  RH  096%=      5-min Rain = 0
KAM1 131151Z 14003KT 10/10 A3022 RMK A01 T01020095  RH  095%=      5-min Rain = 0
KAM1 131152Z 15003KT 10/10 A3022 RMK A01 T01030095  RH  095%=      5-min Rain = 0
KAM1 131153Z 15004KT 10/09 A3022 RMK A01 T01030094  RH  094%=      5-min Rain = 0
KAM1 131154Z 15004KT 10/09 A3022 RMK A01 T01030094  RH  094%=      5-min Rain = 0
KAM1 131155Z 15004KT 10/09 A3022 RMK A01 T01030093  RH  093%=      5-min Rain = 0
KAM1 131156Z 14004KT 10/09 A3022 RMK A01 T01030093  RH  093%=      5-min Rain = 0
KAM1 131157Z 14004KT 10/09 A3022 RMK A01 T01030091  RH  092%=      5-min Rain = 0
KAM1 131158Z 15005KT 10/09 A3022 RMK A01 T01010090  RH  092%=      5-min Rain = 0
KAM1 131159Z 14005KT 10/09 A3022 RMK A01 T01000089  RH  093%=      5-min Rain = 0
KAM1 131200Z 15005KT 10/09 A3022 RMK A01 T01000090  RH  093%=      5-min Rain = 0
KAM1 131201Z 15005KT 10/09 A3022 RMK A01 T00990090  RH  094%=      5-min Rain = 0
KAM1 131202Z 15005KT 10/09 A3022 RMK A01 T00980090  RH  095%=      5-min Rain = 0
KAM1 131203Z 14005KT 10/09 A3022 RMK A01 T00980091  RH  096%=      5-min Rain = 0
KAM1 131204Z 15005KT 10/09 A3022 RMK A01 T00980093  RH  097%=      5-min Rain = 0
KAM1 131205Z 15005KT 10/09 A3022 RMK A01 T00970093  RH  097%=      5-min Rain = 0
KAM1 131206Z 15005KT 10/09 A3022 RMK A01 T00970094  RH  098%=      5-min Rain = 0
KAM1 131207Z 15005KT 10/10 A3022 RMK A01 T00970096  RH  099%=      5-min Rain = 0
KAM1 131208Z 15006KT 10/10 A3022 RMK A01 T00980097  RH  100%=      5-min Rain = 0
KAM1 131209Z 14005KT 10/10 A3022 RMK A01 T00990098  RH  100%=      5-min Rain = 0
KAM1 131210Z 15005KT 10/10 A3022 RMK A01 T01000098  RH  099%=      5-min Rain = 0
KAM1 131211Z 14006KT 10/10 A3022 RMK A01 T01010099  RH  099%=      5-min Rain = 0
KAM1 131212Z 15005KT 10/10 A3022 RMK A01 T01020099  RH  098%=      5-min Rain = 0
KAM1 131213Z 15006KT 10/10 A3022 RMK A01 T01030099  RH  097%=      5-min Rain = 0
KAM1 131214Z 14006KT 10/10 A3022 RMK A01 T01030099  RH  097%=      5-min Rain = 0
KAM1 131215Z 14006KT 10/10 A3022 RMK A01 T01040099  RH  097%=      5-min Rain = 0
KAM1 131216Z 14006KT 11/10 A3022 RMK A01 T01050099  RH  096%=      5-min Rain = 0
KAM1 131217Z 15007KT 11/10 A3022 RMK A01 T01070100  RH  096%=      5-min Rain = 0
KAM1 131218Z 15007KT 11/10 A3022 RMK A01 T01080100  RH  095%=      5-min Rain = 0
KAM1 131219Z 15007KT 11/10 A3022 RMK A01 T01090100  RH  095%=      5-min Rain = 0
KAM1 131220Z 15007KT 11/10 A3022 RMK A01 T01090100  RH  094%=      5-min Rain = 0
KAM1 131221Z 15007KT 11/10 A3022 RMK A01 T01090100  RH  094%=      5-min Rain = 0
KAM1 131222Z 15006KT 11/10 A3022 RMK A01 T01090100  RH  094%=      5-min Rain = 0
KAM1 131223Z 15006KT 11/10 A3022 RMK A01 T01090100  RH  094%=      5-min Rain = 0
KAM1 131224Z 15007KT 11/10 A3022 RMK A01 T01090101  RH  095%=      5-min Rain = 0
KAM1 131225Z 15007KT 11/10 A3022 RMK A01 T01090101  RH  095%=      5-min Rain = 0
KAM1 131226Z 15007KT 11/10 A3022 RMK A01 T01090102  RH  095%=      5-min Rain = 0
KAM1 131227Z 15007KT 11/10 A3022 RMK A01 T01090102  RH  095%=      5-min Rain = 0
KAM1 131228Z 15007KT 11/10 A3022 RMK A01 T01100102  RH  095%=      5-min Rain = 0
KAM1 131229Z 15007KT 11/10 A3022 RMK A01 T01100103  RH  095%=      5-min Rain = 0
KAM1 131230Z 15007KT 11/10 A3022 RMK A01 T01110102  RH  094%=      5-min Rain = 0
KAM1 131231Z 15007KT 11/10 A3022 RMK A01 T01120102  RH  094%=      5-min Rain = 0
KAM1 131232Z 15007KT 11/10 A3022 RMK A01 T01120102  RH  094%=      5-min Rain = 0
KAM1 131233Z 16007KT 11/10 A3022 RMK A01 T01120103  RH  094%=      5-min Rain = 0
KAM1 131234Z 16006KT 11/10 A3022 RMK A01 T01130104  RH  094%=      5-min Rain = 0
KAM1 131235Z 16006KT 11/10 A3022 RMK A01 T01130103  RH  094%=      5-min Rain = 0
KAM1 131236Z 16006KT 11/10 A3022 RMK A01 T01140104  RH  093%=      5-min Rain = 0
KAM1 131237Z 16006KT 11/10 A3022 RMK A01 T01140104  RH  093%=      5-min Rain = 0
KAM1 131238Z 16007KT 12/10 A3022 RMK A01 T01150104  RH  093%=      5-min Rain = 0
KAM1 131239Z 16006KT 12/10 A3022 RMK A01 T01160104  RH  092%=      5-min Rain = 0
KAM1 131240Z 16006KT 12/10 A3022 RMK A01 T01170104  RH  092%=      5-min Rain = 0
KAM1 131241Z 16006KT 12/10 A3022 RMK A01 T01180104  RH  091%=      5-min Rain = 0
KAM1 131242Z 16007KT 12/11 A3022 RMK A01 T01200105  RH  091%=      5-min Rain = 0
KAM1 131243Z 16006KT 12/11 A3022 RMK A01 T01210106  RH  090%=      5-min Rain = 0
KAM1 131244Z 16006KT 12/11 A3022 RMK A01 T01230107  RH  090%=      5-min Rain = 0
KAM1 131245Z 16007KT 12/11 A3022 RMK A01 T01240107  RH  089%=      5-min Rain = 0
KAM1 131246Z 16007KT 13/11 A3022 RMK A01 T01260106  RH  088%=      5-min Rain = 0
KAM1 131247Z 16006KT 13/11 A3022 RMK A01 T01270107  RH  088%=      5-min Rain = 0
KAM1 131248Z 16007KT 13/11 A3022 RMK A01 T01270106  RH  087%=      5-min Rain = 0
KAM1 131249Z 16007KT 13/11 A3022 RMK A01 T01280107  RH  087%=      5-min Rain = 0
KAM1 131250Z 16006KT 13/11 A3022 RMK A01 T01280106  RH  086%=      5-min Rain = 0
KAM1 131251Z 16006KT 13/11 A3022 RMK A01 T01290106  RH  086%=      5-min Rain = 0
KAM1 131252Z 17007KT 13/11 A3022 RMK A01 T01290106  RH  085%=      5-min Rain = 0
KAM1 131253Z 17006KT 13/11 A3022 RMK A01 T01300106  RH  085%=      5-min Rain = 0
KAM1 131254Z 17007KT 13/11 A3022 RMK A01 T01310105  RH  084%=      5-min Rain = 0
KAM1 131255Z 17006KT 13/11 A3022 RMK A01 T01320105  RH  084%=      5-min Rain = 0
KAM1 131256Z 17007KT 13/11 A3022 RMK A01 T01330106  RH  084%=      5-min Rain = 0
KAM1 131257Z 17007KT 13/11 A3022 RMK A01 T01340107  RH  084%=      5-min Rain = 0
KAM1 131258Z 17007KT 13/11 A3022 RMK A01 T01340107  RH  084%=      5-min Rain = 0
KAM1 131259Z 17007KT 14/11 A3022 RMK A01 T01350107  RH  083%=      5-min Rain = 0
KAM1 131300Z 17008KT 14/11 A3022 RMK A01 T01360107  RH  083%=      5-min Rain = 0
KAM1 131301Z 17007KT 14/11 A3022 RMK A01 T01370106  RH  081%=      5-min Rain = 0
KAM1 131302Z 18007KT 14/11 A3022 RMK A01 T01400108  RH  081%=      5-min Rain = 0
KAM1 131303Z 17008KT 14/11 A3022 RMK A01 T01410109  RH  081%=      5-min Rain = 0
KAM1 131304Z 18008KT 14/11 A3022 RMK A01 T01430108  RH  079%=      5-min Rain = 0
KAM1 131305Z 18008KT 14/11 A3022 RMK A01 T01440107  RH  078%=      5-min Rain = 0
KAM1 131306Z 18008KT 15/10 A3022 RMK A01 T01450102  RH  075%=      5-min Rain = 0
KAM1 131307Z 18008KT 15/10 A3022 RMK A01 T01460100  RH  074%=      5-min Rain = 0
KAM1 131308Z 19009KT 15/10 A3022 RMK A01 T01470100  RH  073%=      5-min Rain = 0
KAM1 131309Z 19008KT 15/10 A3022 RMK A01 T01470098  RH  072%=      5-min Rain = 0
KAM1 131310Z 19007KT 15/10 A3022 RMK A01 T01480101  RH  073%=      5-min Rain = 0
KAM1 131311Z 19007KT 15/10 A3022 RMK A01 T01480101  RH  074%=      5-min Rain = 0
KAM1 131312Z 19008KT 15/10 A3022 RMK A01 T01470101  RH  073%=      5-min Rain = 0
KAM1 131313Z 19008KT 15/10 A3022 RMK A01 T01470099  RH  073%=      5-min Rain = 0
KAM1 131314Z 19009KT 15/10 A3022 RMK A01 T01470100  RH  073%=      5-min Rain = 0
KAM1 131315Z 19009KT 15/10 A3022 RMK A01 T01470098  RH  072%=      5-min Rain = 0
KAM1 131316Z 19009KT 15/10 A3022 RMK A01 T01470098  RH  072%=      5-min Rain = 0
KAM1 131317Z 18009KT 15/10 A3022 RMK A01 T01470097  RH  072%=      5-min Rain = 0
KAM1 131318Z 18008KT 15/10 A3022 RMK A01 T01470098  RH  073%=      5-min Rain = 0
KAM1 131319Z 18009KT 15/10 A3022 RMK A01 T01460098  RH  073%=      5-min Rain = 0
KAM1 131320Z 18008KT 15/10 A3022 RMK A01 T01460099  RH  073%=      5-min Rain = 0
KAM1 131321Z 18009KT 15/10 A3022 RMK A01 T01460099  RH  073%=      5-min Rain = 0
KAM1 131322Z 18009KT 15/10 A3022 RMK A01 T01460097  RH  073%=      5-min Rain = 0
KAM1 131323Z 18008KT 15/10 A3022 RMK A01 T01460097  RH  073%=      5-min Rain = 0
KAM1 131324Z 18009KT 15/10 A3022 RMK A01 T01460098  RH  073%=      5-min Rain = 0
KAM1 131325Z 18009KT 15/10 A3022 RMK A01 T01460097  RH  073%=      5-min Rain = 0
KAM1 131326Z 18008KT 15/10 A3022 RMK A01 T01460099  RH  073%=      5-min Rain = 0
KAM1 131327Z 19008KT 15/10 A3022 RMK A01 T01460100  RH  074%=      5-min Rain = 0
KAM1 131328Z 18009KT 15/10 A3022 RMK A01 T01460101  RH  074%=      5-min Rain = 0
KAM1 131329Z 18010KT 15/10 A3022 RMK A01 T01460100  RH  074%=      5-min Rain = 0
KAM1 131330Z 18008KT 15/10 A3022 RMK A01 T01470100  RH  073%=      5-min Rain = 0
KAM1 131331Z 18009KT 15/10 A3022 RMK A01 T01470100  RH  073%=      5-min Rain = 0
KAM1 131332Z 18009KT 15/10 A3022 RMK A01 T01480099  RH  073%=      5-min Rain = 0
KAM1 131333Z 18008KT 15/10 A3023 RMK A01 T01490101  RH  073%=      5-min Rain = 0
KAM1 131334Z 18007KT 15/10 A3023 RMK A01 T01490102  RH  073%=      5-min Rain = 0
KAM1 131335Z 18008KT 15/10 A3023 RMK A01 T01490102  RH  073%=      5-min Rain = 0
KAM1 131336Z 18009KT 15/10 A3023 RMK A01 T01490102  RH  073%=      5-min Rain = 0
KAM1 131337Z 18010KT 15/10 A3023 RMK A01 T01500102  RH  073%=      5-min Rain = 0
KAM1 131338Z 18010KT 15/10 A3023 RMK A01 T01510102  RH  073%=      5-min Rain = 0
KAM1 131339Z 18008KT 15/10 A3023 RMK A01 T01520103  RH  073%=      5-min Rain = 0
KAM1 131340Z 19008KT 15/10 A3023 RMK A01 T01520104  RH  073%=      5-min Rain = 0
KAM1 131341Z 18010KT 15/10 A3023 RMK A01 T01530104  RH  072%=      5-min Rain = 0
KAM1 131342Z 18011KT 15/10 A3023 RMK A01 T01540103  RH  071%=      5-min Rain = 0
KAM1 131343Z 18011KT 16/10 A3023 RMK A01 T01550103  RH  071%=      5-min Rain = 0
KAM1 131344Z 18009KT 16/10 A3023 RMK A01 T01560103  RH  071%=      5-min Rain = 0
KAM1 131345Z 18009KT 16/10 A3023 RMK A01 T01560104  RH  071%=      5-min Rain = 0
KAM1 131346Z 18011KT 16/10 A3023 RMK A01 T01560102  RH  070%=      5-min Rain = 0
KAM1 131347Z 18011KT 16/10 A3023 RMK A01 T01570102  RH  070%=      5-min Rain = 0
KAM1 131348Z 18013KT 16/10 A3023 RMK A01 T01580100  RH  069%=      5-min Rain = 0
KAM1 131349Z 18013KT 16/10 A3023 RMK A01 T01590098  RH  067%=      5-min Rain = 0
KAM1 131350Z 18013KT 16/10 A3023 RMK A01 T01600097  RH  066%=      5-min Rain = 0
KAM1 131351Z 18011KT 16/10 A3023 RMK A01 T01610098  RH  066%=      5-min Rain = 0
KAM1 131352Z 18013KT 16/10 A3022 RMK A01 T01620099  RH  066%=      5-min Rain = 0
KAM1 131353Z 18012KT 17/10 A3023 RMK A01 T01650100  RH  065%=      5-min Rain = 0
KAM1 131354Z 18012KT 17/10 A3023 RMK A01 T01690103  RH  065%=      5-min Rain = 0
KAM1 131355Z 18012KT 17/11 A3023 RMK A01 T01730105  RH  064%=      5-min Rain = 0
KAM1 131356Z 18013KT 18/10 A3023 RMK A01 T01750104  RH  063%=      5-min Rain = 0
KAM1 131357Z 18013G19KT 18/10 A3023 RMK A01 T01760102  RH  062%=      5-min Rain = 0
KAM1 131358Z 18013KT 18/10 A3023 RMK A01 T01770104  RH  062%=      5-min Rain = 0
KAM1 131359Z 18015KT 18/10 A3023 RMK A01 T01780101  RH  060%=      5-min Rain = 0
KAM1 131400Z 18013KT 18/10 A3023 RMK A01 T01800100  RH  060%=      5-min Rain = 0
KAM1 131401Z 18012KT 18/10 A3023 RMK A01 T01810103  RH  060%=      5-min Rain = 0
KAM1 131402Z 18014KT 18/10 A3023 RMK A01 T01830102  RH  059%=      5-min Rain = 0
KAM1 131403Z 18013G18KT 18/10 A3023 RMK A01 T01840102  RH  059%=      5-min Rain = 0
KAM1 131404Z 18015KT 19/10 A3023 RMK A01 T01850100  RH  058%=      5-min Rain = 0
KAM1 131405Z 18015KT 19/10 A3023 RMK A01 T01850101  RH  058%=      5-min Rain = 0
KAM1 131406Z 18014KT 19/10 A3023 RMK A01 T01860101  RH  058%=      5-min Rain = 0
KAM1 131407Z 19018KT 19/10 A3023 RMK A01 T01870099  RH  057%=      5-min Rain = 0
KAM1 131408Z 18016KT 19/10 A3023 RMK A01 T01860099  RH  057%=      5-min Rain = 0
KAM1 131409Z 18016KT 19/10 A3023 RMK A01 T01870098  RH  056%=      5-min Rain = 0
KAM1 131410Z 17016KT 19/10 A3023 RMK A01 T01870099  RH  057%=      5-min Rain = 0
KAM1 131411Z 18014KT 19/10 A3023 RMK A01 T01870098  RH  056%=      5-min Rain = 0
KAM1 131412Z 18014KT 19/10 A3023 RMK A01 T01880100  RH  057%=      5-min Rain = 0
KAM1 131413Z 18015KT 19/10 A3023 RMK A01 T01880100  RH  056%=      5-min Rain = 0
KAM1 131414Z 19015KT 19/10 A3023 RMK A01 T01890100  RH  056%=      5-min Rain = 0
KAM1 131415Z 18014KT 19/10 A3023 RMK A01 T01890098  RH  055%=      5-min Rain = 0
KAM1 131416Z 18017KT 19/10 A3023 RMK A01 T01900098  RH  055%=      5-min Rain = 0
KAM1 131417Z 19015KT 19/10 A3023 RMK A01 T01900098  RH  055%=      5-min Rain = 0
KAM1 131418Z 18013KT 19/10 A3023 RMK A01 T01900100  RH  056%=      5-min Rain = 0
KAM1 131419Z 18016KT 19/10 A3023 RMK A01 T01910100  RH  056%=      5-min Rain = 0
KAM1 131420Z 18016KT 19/10 A3023 RMK A01 T01910098  RH  055%=      5-min Rain = 0
KAM1 131421Z 18016KT 19/10 A3023 RMK A01 T01910098  RH  055%=      5-min Rain = 0
KAM1 131422Z 18012KT 19/10 A3023 RMK A01 T01920099  RH  055%=      5-min Rain = 0
KAM1 131423Z 18014G19KT 19/10 A3023 RMK A01 T01920102  RH  056%=      5-min Rain = 0
KAM1 131424Z 17014KT 19/10 A3023 RMK A01 T01940101  RH  055%=      5-min Rain = 0
KAM1 131425Z 18013KT 19/10 A3023 RMK A01 T01940104  RH  056%=      5-min Rain = 0
KAM1 131426Z 19016KT 20/10 A3023 RMK A01 T01960104  RH  055%=      5-min Rain = 0
KAM1 131427Z 19018KT 20/10 A3023 RMK A01 T01970097  RH  053%=      5-min Rain = 0
KAM1 131428Z 19018KT 20/10 A3023 RMK A01 T01970098  RH  053%=      5-min Rain = 0
KAM1 131429Z 19017KT 20/10 A3023 RMK A01 T01970097  RH  052%=      5-min Rain = 0
KAM1 131430Z 18015KT 20/10 A3023 RMK A01 T01970097  RH  052%=      5-min Rain = 0
KAM1 131431Z 19015G20KT 20/10 A3023 RMK A01 T01980102  RH  054%=      5-min Rain = 0
KAM1 131432Z 19017KT 20/10 A3023 RMK A01 T01990100  RH  053%=      5-min Rain = 0
KAM1 131433Z 19015KT 20/10 A3023 RMK A01 T02000099  RH  052%=      5-min Rain = 0
KAM1 131434Z 19017KT 20/10 A3023 RMK A01 T02010099  RH  052%=      5-min Rain = 0
KAM1 131435Z 19015KT 20/10 A3023 RMK A01 T02010096  RH  051%=      5-min Rain = 0
KAM1 131436Z 19015G20KT 20/10 A3023 RMK A01 T02010099  RH  052%=      5-min Rain = 0
KAM1 131437Z 19016KT 20/10 A3023 RMK A01 T02010099  RH  052%=      5-min Rain = 0
KAM1 131438Z 19016KT 20/10 A3023 RMK A01 T02010099  RH  052%=      5-min Rain = 0
KAM1 131439Z 19014KT 20/10 A3023 RMK A01 T02020100  RH  052%=      5-min Rain = 0
KAM1 131440Z 19015KT 20/10 A3023 RMK A01 T02020102  RH  052%=      5-min Rain = 0
KAM1 131441Z 19015KT 20/10 A3023 RMK A01 T02030100  RH  052%=      5-min Rain = 0
KAM1 131442Z 19013KT 20/10 A3023 RMK A01 T02030102  RH  052%=      5-min Rain = 0
KAM1 131443Z 19015KT 20/10 A3023 RMK A01 T02040103  RH  053%=      5-min Rain = 0
KAM1 131444Z 19016G21KT 20/10 A3023 RMK A01 T02040104  RH  052%=      5-min Rain = 0
KAM1 131445Z 18016KT 21/10 A3023 RMK A01 T02050101  RH  051%=      5-min Rain = 0
KAM1 131446Z 19014KT 21/10 A3023 RMK A01 T02050102  RH  052%=      5-min Rain = 0
KAM1 131447Z 19015KT 21/10 A3022 RMK A01 T02050101  RH  051%=      5-min Rain = 0
KAM1 131448Z 18013KT 21/10 A3023 RMK A01 T02050103  RH  052%=      5-min Rain = 0
KAM1 131449Z 18017KT 21/10 A3022 RMK A01 T02050104  RH  052%=      5-min Rain = 0
KAM1 131450Z 18015KT 21/10 A3022 RMK A01 T02060104  RH  052%=      5-min Rain = 0
KAM1 131451Z 18017KT 21/10 A3022 RMK A01 T02060102  RH  051%=      5-min Rain = 0
KAM1 131452Z 18015KT 21/10 A3022 RMK A01 T02060102  RH  051%=      5-min Rain = 0
KAM1 131453Z 19015KT 21/10 A3022 RMK A01 T02050103  RH  052%=      5-min Rain = 0
KAM1 131454Z 17013KT 21/11 A3022 RMK A01 T02050105  RH  053%=      5-min Rain = 0
KAM1 131455Z 18015KT 21/10 A3022 RMK A01 T02050104  RH  052%=      5-min Rain = 0
KAM1 131456Z 18015KT 21/10 A3022 RMK A01 T02050104  RH  052%=      5-min Rain = 0
KAM1 131457Z 18012KT 21/10 A3022 RMK A01 T02050104  RH  053%=      5-min Rain = 0
KAM1 131458Z 17015KT 21/11 A3022 RMK A01 T02050105  RH  053%=      5-min Rain = 0
KAM1 131459Z 18013KT 21/10 A3022 RMK A01 T02050104  RH  052%=      5-min Rain = 0
KAM1 131500Z 17013KT 21/11 A3022 RMK A01 T02060106  RH  053%=      5-min Rain = 0
KAM1 131501Z 18013KT 21/11 A3022 RMK A01 T02060106  RH  053%=      5-min Rain = 0
KAM1 131502Z 18015KT 21/11 A3022 RMK A01 T02070105  RH  052%=      5-min Rain = 0
KAM1 131503Z 19012KT 21/10 A3022 RMK A01 T02070104  RH  052%=      5-min Rain = 0
KAM1 131504Z 19011KT 21/11 A3022 RMK A01 T02080105  RH  052%=      5-min Rain = 0
KAM1 131505Z 18013KT 21/11 A3022 RMK A01 T02080105  RH  052%=      5-min Rain = 0
KAM1 131506Z 17013G19KT 21/11 A3022 RMK A01 T02090108  RH  052%=      5-min Rain = 0
KAM1 131507Z 18014G19KT 21/11 A3022 RMK A01 T02110105  RH  051%=      5-min Rain = 0
KAM1 131508Z 18015KT 21/10 A3021 RMK A01 T02120104  RH  050%=      5-min Rain = 0
KAM1 131509Z 18014KT 21/10 A3021 RMK A01 T02120102  RH  049%=      5-min Rain = 0
KAM1 131510Z 17014KT 21/11 A3021 RMK A01 T02120105  RH  050%=      5-min Rain = 0
KAM1 131511Z 18015G20KT 21/11 A3021 RMK A01 T02120106  RH  051%=      5-min Rain = 0
KAM1 131512Z 18017KT 21/10 A3021 RMK A01 T02130101  RH  049%=      5-min Rain = 0
KAM1 131513Z 18015KT 21/10 A3021 RMK A01 T02120100  RH  049%=      5-min Rain = 0
KAM1 131514Z 17013KT 21/10 A3021 RMK A01 T02120104  RH  050%=      5-min Rain = 0
KAM1 131515Z 18012KT 21/11 A3021 RMK A01 T02130107  RH  051%=      5-min Rain = 0
KAM1 131516Z 18014KT 22/11 A3021 RMK A01 T02150107  RH  050%=      5-min Rain = 0
KAM1 131517Z 18017G22KT 22/10 A3021 RMK A01 T02150104  RH  049%=      5-min Rain = 0
KAM1 131518Z 18017KT 22/10 A3021 RMK A01 T02150099  RH  047%=      5-min Rain = 0
KAM1 131519Z 18016KT 21/10 A3021 RMK A01 T02140099  RH  048%=      5-min Rain = 0
KAM1 131520Z 17016KT 21/10 A3021 RMK A01 T02130101  RH  049%=      5-min Rain = 0
KAM1 131521Z 18016KT 21/10 A3021 RMK A01 T02140101  RH  049%=      5-min Rain = 0
KAM1 131522Z 19014G19KT 21/10 A3021 RMK A01 T02140103  RH  049%=      5-min Rain = 0
KAM1 131523Z 18014G19KT 22/11 A3021 RMK A01 T02150105  RH  049%=      5-min Rain = 0
KAM1 131524Z 18017KT 22/10 A3021 RMK A01 T02160104  RH  049%=      5-min Rain = 0
KAM1 131525Z 18015KT 22/10 A3021 RMK A01 T02160101  RH  048%=      5-min Rain = 0
KAM1 131526Z 18016KT 22/10 A3021 RMK A01 T02150102  RH  049%=      5-min Rain = 0
KAM1 131527Z 19015KT 22/10 A3021 RMK A01 T02150103  RH  049%=      5-min Rain = 0
KAM1 131528Z 17015KT 22/10 A3021 RMK A01 T02150104  RH  049%=      5-min Rain = 0
KAM1 131529Z 17015KT 22/11 A3021 RMK A01 T02160105  RH  049%=      5-min Rain = 0
KAM1 131530Z 18014KT 22/11 A3021 RMK A01 T02170105  RH  049%=      5-min Rain = 0
KAM1 131531Z 18017KT 22/10 A3021 RMK A01 T02170104  RH  049%=      5-min Rain = 0
KAM1 131532Z 18014KT 22/10 A3021 RMK A01 T02170101  RH  047%=      5-min Rain = 0
KAM1 131533Z 18016G21KT 22/11 A3021 RMK A01 T02170105  RH  049%=      5-min Rain = 0
KAM1 131534Z 19013G18KT 22/11 A3021 RMK A01 T02170106  RH  049%=      5-min Rain = 0
KAM1 131535Z 19016G21KT 22/10 A302 RMK A01 T02190104  RH  048%=      5-min Rain = 0
KAM1 131536Z 19015G20KT 22/11 A302 RMK A01 T02190108  RH  049%=      5-min Rain = 0
KAM1 131537Z 19018KT 22/10 A302 RMK A01 T02200102  RH  047%=      5-min Rain = 0
KAM1 131538Z 18013KT 22/10 A302 RMK A01 T02200104  RH  048%=      5-min Rain = 0
KAM1 131539Z 17016KT 22/11 A302 RMK A01 T02210107  RH  048%=      5-min Rain = 0
KAM1 131540Z 18018KT 22/10 A302 RMK A01 T02210101  RH  047%=      5-min Rain = 0
KAM1 131541Z 17016KT 22/10 A302 RMK A01 T02200103  RH  047%=      5-min Rain = 0
KAM1 131542Z 17017KT 22/10 A302 RMK A01 T02200101  RH  047%=      5-min Rain = 0
KAM1 131543Z 17016KT 22/11 A302 RMK A01 T02210106  RH  048%=      5-min Rain = 0
KAM1 131544Z 17015KT 22/11 A302 RMK A01 T02210105  RH  048%=      5-min Rain = 0
KAM1 131545Z 17017G24KT 22/11 A302 RMK A01 T02220105  RH  047%=      5-min Rain = 0
KAM1 131546Z 17020G25KT 22/10 A302 RMK A01 T02220100  RH  046%=      5-min Rain = 0
KAM1 131547Z 17016G21KT 22/10 A302 RMK A01 T02220101  RH  046%=      5-min Rain = 0
KAM1 131548Z 17019KT 22/10 A302 RMK A01 T02210101  RH  046%=      5-min Rain = 0
KAM1 131549Z 18018G23KT 22/10 A302 RMK A01 T02210099  RH  046%=      5-min Rain = 0
KAM1 131550Z 18019G24KT 22/10 A302 RMK A01 T02210101  RH  047%=      5-min Rain = 0
KAM1 131551Z 18013G19KT 22/10 A302 RMK A01 T02200100  RH  046%=      5-min Rain = 0
KAM1 131552Z 18015KT 22/11 A302 RMK A01 T02210106  RH  048%=      5-min Rain = 0
KAM1 131553Z 19017KT 22/10 A302 RMK A01 T02220103  RH  047%=      5-min Rain = 0
KAM1 131554Z 19016KT 22/11 A302 RMK A01 T02230106  RH  047%=      5-min Rain = 0
KAM1 131555Z 19018KT 22/10 A302 RMK A01 T02230102  RH  046%=      5-min Rain = 0
KAM1 131556Z 19018G23KT 22/10 A302 RMK A01 T02220102  RH  046%=      5-min Rain = 0
KAM1 131557Z 18018G24KT 22/10 A302 RMK A01 T02210098  RH  046%=      5-min Rain = 0
KAM1 131558Z 18019G24KT 22/10 A302 RMK A01 T02200097  RH  045%=      5-min Rain = 0
KAM1 131559Z 18019KT 22/10 A302 RMK A01 T02190097  RH  046%=      5-min Rain = 0
KAM1 131600Z 19015KT 22/10 A302 RMK A01 T02190100  RH  047%=      5-min Rain = 0
KAM1 131601Z 17016G21KT 22/11 A302 RMK A01 T02200106  RH  048%=      5-min Rain = 0
KAM1 131602Z 18017G25KT 22/11 A302 RMK A01 T02230106  RH  048%=      5-min Rain = 0
KAM1 131603Z 17018G23KT 22/10 A302 RMK A01 T02240101  RH  046%=      5-min Rain = 0
KAM1 131604Z 17018KT 22/10 A302 RMK A01 T02240101  RH  046%=      5-min Rain = 0
KAM1 131605Z 18013KT 22/11 A302 RMK A01 T02230107  RH  048%=      5-min Rain = 0
KAM1 131606Z 18018G23KT 23/11 A302 RMK A01 T02250107  RH  047%=      5-min Rain = 0
KAM1 131607Z 17018KT 23/10 A302 RMK A01 T02260102  RH  045%=      5-min Rain = 0
KAM1 131608Z 17018KT 23/10 A302 RMK A01 T02260104  RH  046%=      5-min Rain = 0
KAM1 131609Z 19018KT 23/10 A302 RMK A01 T02260101  RH  045%=      5-min Rain = 0
KAM1 131610Z 17018KT 23/10 A302 RMK A01 T02250102  RH  046%=      5-min Rain = 0
KAM1 131611Z 16018KT 23/10 A3019 RMK A01 T02250101  RH  045%=      5-min Rain = 0
KAM1 131612Z 17016G21KT 23/11 A302 RMK A01 T02250105  RH  046%=      5-min Rain = 0
KAM1 131613Z 18018KT 23/10 A302 RMK A01 T02260104  RH  046%=      5-min Rain = 0
KAM1 131614Z 17019KT 23/10 A302 RMK A01 T02270103  RH  046%=      5-min Rain = 0
KAM1 131615Z 18020G25KT 23/10 A302 RMK A01 T02260102  RH  045%=      5-min Rain = 0
KAM1 131616Z 18015KT 23/10 A302 RMK A01 T02260104  RH  046%=      5-min Rain = 0
KAM1 131617Z 19013G21KT 23/11 A302 RMK A01 T02270112  RH  048%=      5-min Rain = 0
KAM1 131618Z 19017KT 23/11 A302 RMK A01 T02290107  RH  046%=      5-min Rain = 0
KAM1 131619Z 17018G23KT 23/10 A302 RMK A01 T02290104  RH  045%=      5-min Rain = 0
KAM1 131620Z 17018KT 23/11 A302 RMK A01 T02290105  RH  045%=      5-min Rain = 0
KAM1 131621Z 17017G22KT 23/11 A302 RMK A01 T02280105  RH  045%=      5-min Rain = 0
KAM1 131622Z 18020KT 23/10 A3019 RMK A01 T02280104  RH  045%=      5-min Rain = 0
KAM1 131623Z 19017KT 23/11 A3019 RMK A01 T02280106  RH  046%=      5-min Rain = 0
KAM1 131624Z 19016KT 23/11 A3019 RMK A01 T02280106  RH  046%=      5-min Rain = 0
KAM1 131625Z 19018KT 23/11 A3019 RMK A01 T02290109  RH  047%=      5-min Rain = 0
KAM1 131626Z 17012KT 23/11 A3019 RMK A01 T02300110  RH  047%=      5-min Rain = 0
KAM1 131627Z 17014KT 23/11 A3019 RMK A01 T02300112  RH  047%=      5-min Rain = 0
KAM1 131628Z 17016KT 23/11 A3019 RMK A01 T02320113  RH  047%=      5-min Rain = 0
KAM1 131629Z 18014KT 23/11 A3019 RMK A01 T02330109  RH  046%=      5-min Rain = 0
KAM1 131630Z 18013KT 23/12 A3019 RMK A01 T02340115  RH  047%=      5-min Rain = 0
KAM1 131631Z 17015KT 24/11 A3019 RMK A01 T02350114  RH  046%=      5-min Rain = 0
KAM1 131632Z 18015G20KT 24/11 A3019 RMK A01 T02350108  RH  045%=      5-min Rain = 0
KAM1 131633Z 18018G23KT 24/11 A3019 RMK A01 T02350109  RH  045%=      5-min Rain = 0
KAM1 131634Z 19017G23KT 24/11 A3019 RMK A01 T02350110  RH  045%=      5-min Rain = 0
KAM1 131635Z 19015KT 24/11 A3019 RMK A01 T02350110  RH  045%=      5-min Rain = 0
KAM1 131636Z 19014G19KT 24/11 A3019 RMK A01 T02360111  RH  045%=      5-min Rain = 0
KAM1 131637Z 19019KT 24/11 A3019 RMK A01 T02360110  RH  045%=      5-min Rain = 0
KAM1 131638Z 20018KT 24/11 A3019 RMK A01 T02360107  RH  044%=      5-min Rain = 0
KAM1 131639Z 19015KT 23/11 A3019 RMK A01 T02340107  RH  045%=      5-min Rain = 0
KAM1 131640Z 17015G20KT 23/11 A3019 RMK A01 T02340109  RH  045%=      5-min Rain = 0
KAM1 131641Z 17020KT 23/11 A3019 RMK A01 T02340109  RH  045%=      5-min Rain = 0
KAM1 131642Z 18021KT 23/11 A3019 RMK A01 T02340108  RH  045%=      5-min Rain = 0
KAM1 131643Z 19018G24KT 23/11 A3019 RMK A01 T02340110  RH  045%=      5-min Rain = 0
KAM1 131644Z 18017G22KT 24/11 A3019 RMK A01 T02350112  RH  046%=      5-min Rain = 0
KAM1 131645Z 19017KT 24/11 A3019 RMK A01 T02350111  RH  045%=      5-min Rain = 0
KAM1 131646Z 19015G20KT 24/11 A3019 RMK A01 T02360113  RH  046%=      5-min Rain = 0
KAM1 131647Z 18016KT 24/12 A3019 RMK A01 T02380118  RH  047%=      5-min Rain = 0
KAM1 131648Z 19016KT 24/12 A3019 RMK A01 T02400115  RH  045%=      5-min Rain = 0
KAM1 131649Z 18016KT 24/12 A3019 RMK A01 T02400115  RH  045%=      5-min Rain = 0
KAM1 131650Z 18015KT 24/12 A3019 RMK A01 T02410117  RH  046%=      5-min Rain = 0
KAM1 131651Z 18015KT 24/12 A3019 RMK A01 T02410115  RH  045%=      5-min Rain = 0
KAM1 131652Z 18016KT 24/12 A3019 RMK A01 T02420117  RH  046%=      5-min Rain = 0
KAM1 131653Z 18017KT 24/11 A3019 RMK A01 T02420114  RH  045%=      5-min Rain = 0
KAM1 131654Z 19018G24KT 24/12 A3018 RMK A01 T02420115  RH  045%=      5-min Rain = 0
KAM1 131655Z 19018KT 24/12 A3018 RMK A01 T02420116  RH  045%=      5-min Rain = 0
KAM1 131656Z 19016KT 24/12 A3019 RMK A01 T02420115  RH  045%=      5-min Rain = 0
KAM1 131657Z 18014KT 24/12 A3019 RMK A01 T02410116  RH  046%=      5-min Rain = 0
KAM1 131658Z 19016KT 24/12 A3018 RMK A01 T02410116  RH  046%=      5-min Rain = 0
KAM1 131659Z 19017G22KT 24/12 A3018 RMK A01 T02420122  RH  047%=      5-min Rain = 0
KAM1 131700Z 19017KT 24/12 A3018 RMK A01 T02440116  RH  045%=      5-min Rain = 0
KAM1 131701Z 19014KT 24/11 A3018 RMK A01 T02430113  RH  044%=      5-min Rain = 0
KAM1 131702Z 19013KT 24/12 A3018 RMK A01 T02420115  RH  045%=      5-min Rain = 0
KAM1 131703Z 18014G19KT 24/12 A3018 RMK A01 T02430122  RH  047%=      5-min Rain = 0
KAM1 131704Z 19015KT 25/12 A3018 RMK A01 T02450123  RH  046%=      5-min Rain = 0
KAM1 131705Z 19019KT 25/12 A3018 RMK A01 T02470118  RH  045%=      5-min Rain = 0
KAM1 131706Z 19020KT 25/12 A3018 RMK A01 T02460115  RH  044%=      5-min Rain = 0
KAM1 131707Z 19019G24KT 25/12 A3018 RMK A01 T02450116  RH  044%=      5-min Rain = 0
KAM1 131708Z 18019KT 25/12 A3018 RMK A01 T02450118  RH  045%=      5-min Rain = 0
KAM1 131709Z 17017KT 25/12 A3018 RMK A01 T02460116  RH  044%=      5-min Rain = 0
KAM1 131710Z 18015G23KT 25/12 A3018 RMK A01 T02460119  RH  045%=      5-min Rain = 0
KAM1 131711Z 19020KT 25/12 A3018 RMK A01 T02460119  RH  045%=      5-min Rain = 0
KAM1 131712Z 18021KT 25/12 A3018 RMK A01 T02470118  RH  044%=      5-min Rain = 0
KAM1 131713Z 19018KT 25/12 A3018 RMK A01 T02460117  RH  044%=      5-min Rain = 0
KAM1 131714Z 19018G24KT 25/12 A3018 RMK A01 T02460121  RH  045%=      5-min Rain = 0
KAM1 131715Z 18014G21KT 25/13 A3018 RMK A01 T02470125  RH  047%=      5-min Rain = 0
KAM1 131716Z 19017KT 25/12 A3018 RMK A01 T02480120  RH  045%=      5-min Rain = 0
KAM1 131717Z 19016KT 25/12 A3018 RMK A01 T02480116  RH  044%=      5-min Rain = 0
KAM1 131718Z 18017G22KT 25/12 A3018 RMK A01 T02470121  RH  045%=      5-min Rain = 0
KAM1 131719Z 19019KT 25/12 A3018 RMK A01 T02480120  RH  045%=      5-min Rain = 0
KAM1 131720Z 20016G21KT 25/12 A3018 RMK A01 T02480118  RH  044%=      5-min Rain = 0
KAM1 131721Z 19019KT 25/12 A3018 RMK A01 T02470116  RH  044%=      5-min Rain = 0
KAM1 131722Z 18017KT 25/12 A3018 RMK A01 T02470117  RH  044%=      5-min Rain = 0
KAM1 131723Z 18017G22KT 25/12 A3017 RMK A01 T02470120  RH  045%=      5-min Rain = 0
KAM1 131724Z 18018KT 25/12 A3018 RMK A01 T02480119  RH  044%=      5-min Rain = 0
KAM1 131725Z 20017G23KT 25/12 A3018 RMK A01 T02490120  RH  044%=      5-min Rain = 0
KAM1 131726Z 20018KT 25/12 A3017 RMK A01 T02480118  RH  044%=      5-min Rain = 0
KAM1 131727Z 20018KT 25/12 A3017 RMK A01 T02480119  RH  045%=      5-min Rain = 0
KAM1 131728Z 19017KT 25/12 A3018 RMK A01 T02480120  RH  045%=      5-min Rain = 0
KAM1 131729Z 18016G21KT 25/12 A3017 RMK A01 T02490120  RH  044%=      5-min Rain = 0
KAM1 131730Z 19014KT 25/12 A3017 RMK A01 T02500119  RH  044%=      5-min Rain = 0
KAM1 131731Z 19014G19KT 25/12 A3017 RMK A01 T02500118  RH  044%=      5-min Rain = 0
KAM1 131732Z 19019G27KT 25/12 A3017 RMK A01 T02500119  RH  044%=      5-min Rain = 0
KAM1 131733Z 20021G27KT 25/12 A3017 RMK A01 T02510120  RH  044%=      5-min Rain = 0
KAM1 131734Z 19016KT 25/12 A3017 RMK A01 T02520123  RH  045%=      5-min Rain = 0
KAM1 131735Z 20019KT 25/12 A3017 RMK A01 T02520117  RH  043%=      5-min Rain = 0
KAM1 131736Z 19017KT 25/12 A3017 RMK A01 T02510117  RH  043%=      5-min Rain = 0
KAM1 131737Z 19019G24KT 25/12 A3017 RMK A01 T02500119  RH  044%=      5-min Rain = 0
KAM1 131738Z 19020KT 25/12 A3017 RMK A01 T02510118  RH  043%=      5-min Rain = 0
KAM1 131739Z 19017KT 25/12 A3017 RMK A01 T02510117  RH  043%=      5-min Rain = 0
KAM1 131740Z 18017G24KT 25/12 A3017 RMK A01 T02510118  RH  043%=      5-min Rain = 0
KAM1 131741Z 18017KT 25/12 A3017 RMK A01 T02500117  RH  043%=      5-min Rain = 0
KAM1 131742Z 18014KT 25/12 A3017 RMK A01 T02510122  RH  045%=      5-min Rain = 0
KAM1 131743Z 19018KT 25/13 A3017 RMK A01 T02530126  RH  045%=      5-min Rain = 0
KAM1 131744Z 18018G24KT 26/12 A3017 RMK A01 T02550124  RH  044%=      5-min Rain = 0
KAM1 131745Z 19018KT 26/12 A3017 RMK A01 T02560122  RH  043%=      5-min Rain = 0
KAM1 131746Z 19018KT 26/12 A3017 RMK A01 T02560123  RH  044%=      5-min Rain = 0
KAM1 131747Z 18022KT 26/12 A3017 RMK A01 T02560124  RH  044%=      5-min Rain = 0
KAM1 131748Z 19019KT 26/12 A3016 RMK A01 T02560123  RH  043%=      5-min Rain = 0
KAM1 131749Z 20016G22KT 26/13 A3017 RMK A01 T02570130  RH  045%=      5-min Rain = 0
KAM1 131750Z 20018G26KT 26/13 A3017 RMK A01 T02590125  RH  043%=      5-min Rain = 0
KAM1 131751Z 20017KT 26/12 A3017 RMK A01 T02570124  RH  043%=      5-min Rain = 0
KAM1 131752Z 20015KT 26/13 A3016 RMK A01 T02570127  RH  044%=      5-min Rain = 0
KAM1 131753Z 20017KT 26/13 A3016 RMK A01 T02570125  RH  044%=      5-min Rain = 0
KAM1 131754Z 19014KT 26/13 A3016 RMK A01 T02570126  RH  044%=      5-min Rain = 0
KAM1 131755Z 20016G22KT 26/13 A3016 RMK A01 T02590133  RH  046%=      5-min Rain = 0
KAM1 131756Z 20016G21KT 26/13 A3016 RMK A01 T02600131  RH  045%=      5-min Rain = 0
KAM1 131757Z 19014KT 26/13 A3016 RMK A01 T02610129  RH  044%=      5-min Rain = 0
KAM1 131758Z 20018KT 26/13 A3016 RMK A01 T02610130  RH  044%=      5-min Rain = 0
KAM1 131759Z 20016G22KT 26/13 A3016 RMK A01 T02600129  RH  044%=      5-min Rain = 0
KAM1 131800Z 18017KT 26/13 A3016 RMK A01 T02590129  RH  044%=      5-min Rain = 0
KAM1 131801Z 19018KT 26/13 A3016 RMK A01 T02590129  RH  044%=      5-min Rain = 0
KAM1 131802Z 19015KT 26/13 A3016 RMK A01 T02590133  RH  046%=      5-min Rain = 0
KAM1 131803Z 19015KT 26/13 A3016 RMK A01 T02590131  RH  045%=      5-min Rain = 0
KAM1 131804Z 21017KT 26/13 A3016 RMK A01 T02590132  RH  045%=      5-min Rain = 0
KAM1 131805Z 19015KT 26/13 A3016 RMK A01 T02590131  RH  045%=      5-min Rain = 0
KAM1 131806Z 20013KT 26/13 A3016 RMK A01 T02590131  RH  045%=      5-min Rain = 0
KAM1 131807Z 21015G20KT 26/14 A3016 RMK A01 T02590135  RH  046%=      5-min Rain = 0
KAM1 131808Z 20018KT 26/13 A3016 RMK A01 T02590128  RH  044%=      5-min Rain = 0
KAM1 131809Z 21017KT 26/13 A3016 RMK A01 T02580128  RH  044%=      5-min Rain = 0
KAM1 131810Z 19016G22KT 26/13 A3016 RMK A01 T02570130  RH  045%=      5-min Rain = 0
KAM1 131811Z 18018KT 26/13 A3015 RMK A01 T02570129  RH  045%=      5-min Rain = 0
KAM1 131812Z 18017KT 26/13 A3015 RMK A01 T02590127  RH  044%=      5-min Rain = 0
KAM1 131813Z 18017KT 26/13 A3016 RMK A01 T02590127  RH  044%=      5-min Rain = 0
KAM1 131814Z 19014KT 26/13 A3016 RMK A01 T02590128  RH  044%=      5-min Rain = 0
KAM1 131815Z 19017KT 26/13 A3015 RMK A01 T02600128  RH  044%=      5-min Rain = 0
KAM1 131816Z 20019G25KT 26/13 A3015 RMK A01 T02610130  RH  044%=      5-min Rain = 0
KAM1 131817Z 20020KT 26/13 A3015 RMK A01 T02610128  RH  044%=      5-min Rain = 0
KAM1 131818Z 21019KT 26/13 A3015 RMK A01 T02600129  RH  044%=      5-min Rain = 0
KAM1 131819Z 20017G22KT 26/13 A3015 RMK A01 T02590129  RH  045%=      5-min Rain = 0
KAM1 131820Z 20017KT 26/13 A3015 RMK A01 T02580131  RH  045%=      5-min Rain = 0
KAM1 131821Z 21019KT 26/13 A3015 RMK A01 T02580131  RH  045%=      5-min Rain = 0
KAM1 131822Z 21017G22KT 26/13 A3015 RMK A01 T02590129  RH  044%=      5-min Rain = 0
KAM1 131823Z 20017KT 26/13 A3015 RMK A01 T02590130  RH  045%=      5-min Rain = 0
KAM1 131824Z 21019G25KT 26/13 A3015 RMK A01 T02590128  RH  044%=      5-min Rain = 0
KAM1 131825Z 20017G24KT 26/13 A3015 RMK A01 T02580128  RH  044%=      5-min Rain = 0
KAM1 131826Z 20020KT 26/13 A3015 RMK A01 T02580127  RH  044%=      5-min Rain = 0
KAM1 131827Z 20018KT 26/13 A3015 RMK A01 T02570126  RH  044%=      5-min Rain = 0
KAM1 131828Z 21018G23KT 26/13 A3015 RMK A01 T02550127  RH  045%=      5-min Rain = 0
KAM1 131829Z 21015KT 26/13 A3015 RMK A01 T02550129  RH  046%=      5-min Rain = 0
KAM1 131830Z 21015KT 26/13 A3015 RMK A01 T02580132  RH  046%=      5-min Rain = 0
KAM1 131831Z 20015KT 26/13 A3015 RMK A01 T02600133  RH  045%=      5-min Rain = 0
KAM1 131832Z 19015KT 26/13 A3014 RMK A01 T02620133  RH  045%=      5-min Rain = 0
KAM1 131833Z 19017KT 26/13 A3014 RMK A01 T02630132  RH  044%=      5-min Rain = 0
KAM1 131834Z 19019KT 26/13 A3014 RMK A01 T02620132  RH  045%=      5-min Rain = 0
KAM1 131835Z 19021G26KT 26/13 A3014 RMK A01 T02620129  RH  044%=      5-min Rain = 0
KAM1 131836Z 19020G25KT 26/13 A3014 RMK A01 T02620130  RH  044%=      5-min Rain = 0
KAM1 131837Z 20017KT 26/13 A3014 RMK A01 T02630132  RH  044%=      5-min Rain = 0
KAM1 131838Z 19016KT 26/13 A3014 RMK A01 T02630131  RH  044%=      5-min Rain = 0
KAM1 131839Z 20017KT 26/14 A3014 RMK A01 T02640135  RH  045%=      5-min Rain = 0
KAM1 131840Z 21013KT 27/13 A3014 RMK A01 T02650132  RH  044%=      5-min Rain = 0
KAM1 131841Z 19019G24KT 27/14 A3014 RMK A01 T02660135  RH  044%=      5-min Rain = 0
KAM1 131842Z 19019KT 27/13 A3014 RMK A01 T02670131  RH  043%=      5-min Rain = 0
KAM1 131843Z 19017KT 27/14 A3014 RMK A01 T02670136  RH  044%=      5-min Rain = 0
KAM1 131844Z 20017KT 27/13 A3014 RMK A01 T02670132  RH  043%=      5-min Rain = 0
KAM1 131845Z 19014G19KT 27/14 A3014 RMK A01 T02660136  RH  045%=      5-min Rain = 0
KAM1 131846Z 19017KT 27/13 A3014 RMK A01 T02660133  RH  044%=      5-min Rain = 0
KAM1 131847Z 19016G21KT 27/14 A3013 RMK A01 T02660136  RH  045%=      5-min Rain = 0
KAM1 131848Z 21016KT 27/14 A3013 RMK A01 T02670137  RH  045%=      5-min Rain = 0
KAM1 131849Z 20020KT 27/14 A3013 RMK A01 T02690136  RH  044%=      5-min Rain = 0
KAM1 131850Z 21019KT 27/13 A3013 RMK A01 T02690132  RH  043%=      5-min Rain = 0
KAM1 131851Z 20016KT 27/13 A3013 RMK A01 T02680134  RH  044%=      5-min Rain = 0
KAM1 131852Z 20015KT 27/14 A3013 RMK A01 T02670135  RH  044%=      5-min Rain = 0
KAM1 131853Z 20017G26KT 27/14 A3013 RMK A01 T02690141  RH  045%=      5-min Rain = 0
KAM1 131854Z 19020G25KT 27/14 A3013 RMK A01 T02710136  RH  043%=      5-min Rain = 0
KAM1 131855Z 20020KT 27/13 A3013 RMK A01 T02710134  RH  043%=      5-min Rain = 0
KAM1 131856Z 20020KT 27/13 A3013 RMK A01 T02710134  RH  043%=      5-min Rain = 0
KAM1 131857Z 20019G24KT 27/13 A3013 RMK A01 T02700132  RH  042%=      5-min Rain = 0
KAM1 131858Z 20017KT 27/13 A3013 RMK A01 T02690132  RH  043%=      5-min Rain = 0
KAM1 131859Z 20017KT 27/14 A3013 RMK A01 T02690137  RH  044%=      5-min Rain = 0
KAM1 131900Z 19019G24KT 27/14 A3013 RMK A01 T02700138  RH  044%=      5-min Rain = 0
KAM1 131901Z 20019G24KT 27/14 A3013 RMK A01 T02710135  RH  043%=      5-min Rain = 0
KAM1 131902Z 20020KT 27/13 A3013 RMK A01 T02710133  RH  043%=      5-min Rain = 0
KAM1 131903Z 20018G24KT 27/13 A3013 RMK A01 T02700134  RH  043%=      5-min Rain = 0
KAM1 131904Z 20016KT 27/14 A3013 RMK A01 T02710139  RH  044%=      5-min Rain = 0
KAM1 131905Z 21017KT 27/14 A3013 RMK A01 T02730138  RH  044%=      5-min Rain = 0
KAM1 131906Z 20016KT 27/13 A3012 RMK A01 T02730131  RH  042%=      5-min Rain = 0
KAM1 131907Z 20016KT 27/14 A3012 RMK A01 T02710136  RH  044%=      5-min Rain = 0
KAM1 131908Z 19016KT 27/14 A3012 RMK A01 T02720140  RH  044%=      5-min Rain = 0
KAM1 131909Z 19014KT 27/14 A3012 RMK A01 T02740137  RH  043%=      5-min Rain = 0
KAM1 131910Z 20019KT 27/14 A3012 RMK A01 T02740136  RH  043%=      5-min Rain = 0
KAM1 131911Z 19018KT 27/13 A3012 RMK A01 T02740134  RH  042%=      5-min Rain = 0
KAM1 131912Z 19018KT 27/13 A3012 RMK A01 T02730134  RH  042%=      5-min Rain = 0
KAM1 131913Z 19021KT 27/13 A3012 RMK A01 T02730133  RH  042%=      5-min Rain = 0
KAM1 131914Z 20021G26KT 27/13 A3012 RMK A01 T02720132  RH  042%=      5-min Rain = 0
KAM1 131915Z 19022KT 27/13 A3012 RMK A01 T02710130  RH  042%=      5-min Rain = 0
KAM1 131916Z 20019KT 27/13 A3012 RMK A01 T02710131  RH  042%=      5-min Rain = 0
KAM1 131917Z 20015G21KT 27/14 A3012 RMK A01 T02710136  RH  044%=      5-min Rain = 0
KAM1 131918Z 20020G26KT 27/13 A3012 RMK A01 T02720132  RH  042%=      5-min Rain = 0
KAM1 131919Z 20020G26KT 27/13 A3012 RMK A01 T02710130  RH  042%=      5-min Rain = 0
KAM1 131920Z 20017KT 27/13 A3012 RMK A01 T02700131  RH  042%=      5-min Rain = 0
KAM1 131921Z 19021KT 27/13 A3012 RMK A01 T02710132  RH  042%=      5-min Rain = 0
KAM1 131922Z 19019G24KT 27/13 A3012 RMK A01 T02710131  RH  042%=      5-min Rain = 0
KAM1 131923Z 19019G24KT 27/13 A3012 RMK A01 T02720130  RH  042%=      5-min Rain = 0
KAM1 131924Z 19016KT 27/14 A3012 RMK A01 T02720135  RH  043%=      5-min Rain = 0
KAM1 131925Z 20015KT 27/14 A3012 RMK A01 T02730139  RH  044%=      5-min Rain = 0
KAM1 131926Z 19017KT 28/14 A3012 RMK A01 T02760139  RH  043%=      5-min Rain = 0
KAM1 131927Z 19022G29KT 28/13 A3011 RMK A01 T02760134  RH  042%=      5-min Rain = 0
KAM1 131928Z 19019KT 27/13 A3011 RMK A01 T02740133  RH  042%=      5-min Rain = 0
KAM1 131929Z 18018KT 27/14 A3012 RMK A01 T02740136  RH  043%=      5-min Rain = 0
KAM1 131930Z 19018G23KT 27/13 A3011 RMK A01 T02740130  RH  041%=      5-min Rain = 0
KAM1 131931Z 19016KT 27/14 A3011 RMK A01 T02730137  RH  043%=      5-min Rain = 0
KAM1 131932Z 20018KT 27/14 A3011 RMK A01 T02740137  RH  043%=      5-min Rain = 0
KAM1 131933Z 20019G24KT 28/14 A3011 RMK A01 T02750136  RH  042%=      5-min Rain = 0
KAM1 131934Z 20017KT 28/13 A3011 RMK A01 T02750134  RH  042%=      5-min Rain = 0
KAM1 131935Z 20018KT 27/14 A3011 RMK A01 T02740135  RH  042%=      5-min Rain = 0
KAM1 131936Z 20019G24KT 27/14 A3011 RMK A01 T02740136  RH  043%=      5-min Rain = 0
KAM1 131937Z 20021KT 27/13 A3011 RMK A01 T02730133  RH  042%=      5-min Rain = 0
KAM1 131938Z 19018KT 27/13 A3011 RMK A01 T02720131  RH  042%=      5-min Rain = 0
KAM1 131939Z 19019KT 27/13 A3011 RMK A01 T02710134  RH  043%=      5-min Rain = 0
KAM1 131940Z 19016KT 27/13 A3011 RMK A01 T02710133  RH  043%=      5-min Rain = 0
KAM1 131941Z 19014KT 27/14 A3011 RMK A01 T02710136  RH  043%=      5-min Rain = 0
KAM1 131942Z 18017G22KT 27/14 A3011 RMK A01 T02710137  RH  044%=      5-min Rain = 0
KAM1 131943Z 18016KT 27/13 A3011 RMK A01 T02710133  RH  043%=      5-min Rain = 0
KAM1 131944Z 19019KT 27/13 A301 RMK A01 T02700133  RH  043%=      5-min Rain = 0
KAM1 131945Z 19017G22KT 27/14 A301 RMK A01 T02690135  RH  044%=      5-min Rain = 0
KAM1 131946Z 19020KT 27/14 A301 RMK A01 T02710137  RH  044%=      5-min Rain = 0
KAM1 131947Z 18017KT 27/13 A301 RMK A01 T02710133  RH  042%=      5-min Rain = 0
KAM1 131948Z 19016G21KT 27/14 A301 RMK A01 T02720139  RH  044%=      5-min Rain = 0
KAM1 131949Z 19023G31KT 27/14 A301 RMK A01 T02730135  RH  043%=      5-min Rain = 0
KAM1 131950Z 20020KT 27/13 A301 RMK A01 T02730131  RH  042%=      5-min Rain = 0
KAM1 131951Z 21016KT 27/13 A301 RMK A01 T02720134  RH  043%=      5-min Rain = 0
KAM1 131952Z 20016KT 27/14 A301 RMK A01 T02720139  RH  044%=      5-min Rain = 0
KAM1 131953Z 19013KT 27/14 A301 RMK A01 T02730137  RH  043%=      5-min Rain = 0
KAM1 131954Z 20012KT 28/14 A301 RMK A01 T02750144  RH  045%=      5-min Rain = 0
KAM1 131955Z 20014KT 28/14 A301 RMK A01 T02780140  RH  043%=      5-min Rain = 0
KAM1 131956Z 19014G19KT 28/14 A301 RMK A01 T02780144  RH  044%=      5-min Rain = 0
KAM1 131957Z 18017KT 28/14 A301 RMK A01 T02810143  RH  043%=      5-min Rain = 0
KAM1 131958Z 18017KT 28/14 A301 RMK A01 T02820142  RH  042%=      5-min Rain = 0
KAM1 131959Z 19016KT 28/14 A301 RMK A01 T02820141  RH  042%=      5-min Rain = 0
KAM1 132000Z 20017G26KT 28/14 A301 RMK A01 T02820140  RH  042%=      5-min Rain = 0
KAM1 132001Z 19020KT 28/14 A3009 RMK A01 T02810139  RH  042%=      5-min Rain = 0
KAM1 132002Z 20018G23KT 28/14 A3009 RMK A01 T02810136  RH  041%=      5-min Rain = 0
KAM1 132003Z 21017G22KT 28/14 A3009 RMK A01 T02800138  RH  042%=      5-min Rain = 0
KAM1 132004Z 20020KT 28/14 A3009 RMK A01 T02790138  RH  042%=      5-min Rain = 0
KAM1 132005Z 19018KT 28/14 A3009 RMK A01 T02790136  RH  041%=      5-min Rain = 0
KAM1 132006Z 18020KT 28/14 A3009 RMK A01 T02780138  RH  042%=      5-min Rain = 0
KAM1 132007Z 19020G25KT 28/13 A3009 RMK A01 T02770134  RH  041%=      5-min Rain = 0
KAM1 132008Z 19021KT 28/13 A3009 RMK A01 T02760132  RH  041%=      5-min Rain = 0
KAM1 132009Z 18019G24KT 28/14 A3009 RMK A01 T02750135  RH  042%=      5-min Rain = 0
KAM1 132010Z 18021G27KT 28/14 A3009 RMK A01 T02770135  RH  042%=      5-min Rain = 0
KAM1 132011Z 18020KT 28/13 A3008 RMK A01 T02770133  RH  041%=      5-min Rain = 0
KAM1 132012Z 19018KT 28/14 A3008 RMK A01 T02780136  RH  041%=      5-min Rain = 0
KAM1 132013Z 20019G26KT 28/14 A3008 RMK A01 T02780136  RH  042%=      5-min Rain = 0
KAM1 132014Z 21020G25KT 28/14 A3008 RMK A01 T02780135  RH  041%=      5-min Rain = 0
KAM1 132015Z 20023G28KT 28/14 A3008 RMK A01 T02780135  RH  041%=      5-min Rain = 0
KAM1 132016Z 19020G25KT 28/14 A3008 RMK A01 T02780136  RH  042%=      5-min Rain = 0
KAM1 132017Z 20022KT 28/14 A3008 RMK A01 T02790135  RH  041%=      5-min Rain = 0
KAM1 132018Z 20018KT 28/14 A3008 RMK A01 T02790136  RH  041%=      5-min Rain = 0
KAM1 132019Z 21017G23KT 28/14 A3008 RMK A01 T02770135  RH  041%=      5-min Rain = 0
KAM1 132020Z 21018KT 28/14 A3008 RMK A01 T02760136  RH  042%=      5-min Rain = 0
KAM1 132021Z 21018G25KT 28/14 A3008 RMK A01 T02760135  RH  042%=      5-min Rain = 0
KAM1 132022Z 19017KT 28/14 A3008 RMK A01 T02760136  RH  042%=      5-min Rain = 0
KAM1 132023Z 19017KT 28/14 A3008 RMK A01 T02760138  RH  043%=      5-min Rain = 0
KAM1 132024Z 20018G24KT 28/14 A3008 RMK A01 T02780140  RH  043%=      5-min Rain = 0
KAM1 132025Z 20022KT 28/14 A3008 RMK A01 T02800137  RH  041%=      5-min Rain = 0
KAM1 132026Z 19017KT 28/14 A3008 RMK A01 T02790138  RH  042%=      5-min Rain = 0
KAM1 132027Z 19018KT 28/14 A3008 RMK A01 T02790139  RH  042%=      5-min Rain = 0
KAM1 132028Z 20017KT 28/14 A3008 RMK A01 T02800141  RH  043%=      5-min Rain = 0
KAM1 132029Z 21024G30KT 28/14 A3007 RMK A01 T02800139  RH  042%=      5-min Rain = 0
KAM1 132030Z 21023KT 28/14 A3007 RMK A01 T02790137  RH  042%=      5-min Rain = 0
KAM1 132031Z 21022KT 28/14 A3008 RMK A01 T02790138  RH  042%=      5-min Rain = 0
KAM1 132032Z 21019G26KT 28/14 A3008 RMK A01 T02800139  RH  042%=      5-min Rain = 0
KAM1 132033Z 21020G25KT 28/14 A3008 RMK A01 T02810139  RH  042%=      5-min Rain = 0
KAM1 132034Z 22015G22KT 28/14 A3008 RMK A01 T02830142  RH  042%=      5-min Rain = 0
KAM1 132035Z 22018KT 28/14 A3007 RMK A01 T02840143  RH  042%=      5-min Rain = 0
KAM1 132036Z 21019G24KT 29/14 A3007 RMK A01 T02850141  RH  041%=      5-min Rain = 0
KAM1 132037Z 21017G22KT 28/14 A3008 RMK A01 T02840143  RH  042%=      5-min Rain = 0
KAM1 132038Z 20014G19KT 28/14 A3008 RMK A01 T02830142  RH  042%=      5-min Rain = 0
KAM1 132039Z 19018G23KT 28/15 A3007 RMK A01 T02830148  RH  044%=      5-min Rain = 0
KAM1 132040Z 19014G19KT 28/15 A3008 RMK A01 T02840145  RH  043%=      5-min Rain = 0
KAM1 132041Z 19016KT 28/14 A3007 RMK A01 T02840142  RH  042%=      5-min Rain = 0
KAM1 132042Z 20015KT 28/14 A3007 RMK A01 T02820144  RH  043%=      5-min Rain = 0
KAM1 132043Z 21015KT 28/15 A3007 RMK A01 T02830147  RH  044%=      5-min Rain = 0
KAM1 132044Z 21018KT 28/15 A3007 RMK A01 T02830145  RH  043%=      5-min Rain = 0
KAM1 132045Z 19017G24KT 28/14 A3007 RMK A01 T02830141  RH  042%=      5-min Rain = 0
KAM1 132046Z 19020KT 28/14 A3007 RMK A01 T02830143  RH  042%=      5-min Rain = 0
KAM1 132047Z 20017KT 28/14 A3007 RMK A01 T02830139  RH  041%=      5-min Rain = 0
KAM1 132048Z 19014KT 28/14 A3007 RMK A01 T02840143  RH  042%=      5-min Rain = 0
KAM1 132049Z 18015KT 29/15 A3007 RMK A01 T02860146  RH  043%=      5-min Rain = 0
KAM1 132050Z 19017G26KT 29/14 A3007 RMK A01 T02880143  RH  041%=      5-min Rain = 0
KAM1 132051Z 19018G23KT 29/14 A3007 RMK A01 T02880140  RH  041%=      5-min Rain = 0
KAM1 132052Z 18019G24KT 29/14 A3007 RMK A01 T02870144  RH  042%=      5-min Rain = 0
KAM1 132053Z 18017G22KT 29/15 A3007 RMK A01 T02870145  RH  042%=      5-min Rain = 0
KAM1 132054Z 18014KT 29/15 A3007 RMK A01 T02880147  RH  042%=      5-min Rain = 0
KAM1 132055Z 19017KT 29/15 A3007 RMK A01 T02900148  RH  042%=      5-min Rain = 0
KAM1 132056Z 20019KT 29/15 A3007 RMK A01 T02910146  RH  041%=      5-min Rain = 0
KAM1 132057Z 19016KT 29/15 A3007 RMK A01 T02910145  RH  041%=      5-min Rain = 0
KAM1 132058Z 18014KT 29/15 A3007 RMK A01 T02900146  RH  041%=      5-min Rain = 0
KAM1 132059Z 19015KT 29/14 A3007 RMK A01 T02890144  RH  041%=      5-min Rain = 0
KAM1 132100Z 20020G25KT 29/15 A3007 RMK A01 T02880145  RH  042%=      5-min Rain = 0
KAM1 132101Z 20018G24KT 29/14 A3007 RMK A01 T02860136  RH  040%=      5-min Rain = 0
KAM1 132102Z 19016G22KT 28/14 A3007 RMK A01 T02840136  RH  040%=      5-min Rain = 0
KAM1 132103Z 19014KT 28/14 A3007 RMK A01 T02840143  RH  042%=      5-min Rain = 0
KAM1 132104Z 20016G21KT 29/15 A3007 RMK A01 T02860145  RH  042%=      5-min Rain = 0
KAM1 132105Z 20012KT 29/15 A3006 RMK A01 T02870145  RH  042%=      5-min Rain = 0
KAM1 132106Z 20015KT 29/15 A3006 RMK A01 T02880149  RH  043%=      5-min Rain = 0
KAM1 132107Z 19014G19KT 29/15 A3006 RMK A01 T02900149  RH  042%=      5-min Rain = 0
KAM1 132108Z 19016G23KT 29/15 A3006 RMK A01 T02900152  RH  043%=      5-min Rain = 0
KAM1 132109Z 19016G21KT 29/15 A3006 RMK A01 T02910149  RH  042%=      5-min Rain = 0
KAM1 132110Z 19016KT 29/15 A3006 RMK A01 T02910153  RH  043%=      5-min Rain = 0
KAM1 132111Z 19018KT 29/15 A3006 RMK A01 T02910148  RH  042%=      5-min Rain = 0
KAM1 132112Z 19020KT 29/14 A3006 RMK A01 T02890144  RH  041%=      5-min Rain = 0
KAM1 132113Z 18019G25KT 29/14 A3006 RMK A01 T02850141  RH  041%=      5-min Rain = 0
KAM1 132114Z 20017KT 28/14 A3006 RMK A01 T02820143  RH  042%=      5-min Rain = 0
KAM1 132115Z 21019KT 28/14 A3006 RMK A01 T02810139  RH  042%=      5-min Rain = 0
KAM1 132116Z 21018G23KT 28/14 A3006 RMK A01 T02820139  RH  041%=      5-min Rain = 0
KAM1 132117Z 20017KT 28/14 A3006 RMK A01 T02840141  RH  042%=      5-min Rain = 0
KAM1 132118Z 19019G24KT 29/14 A3006 RMK A01 T02860143  RH  041%=      5-min Rain = 0
KAM1 132119Z 19019KT 29/14 A3006 RMK A01 T02880142  RH  041%=      5-min Rain = 0
KAM1 132120Z 18018KT 29/14 A3005 RMK A01 T02870144  RH  041%=      5-min Rain = 0
KAM1 132121Z 18020G25KT 29/14 A3005 RMK A01 T02880144  RH  041%=      5-min Rain = 0
KAM1 132122Z 18021KT 29/14 A3005 RMK A01 T02880142  RH  041%=      5-min Rain = 0
KAM1 132123Z 19023G28KT 29/15 A3005 RMK A01 T02890145  RH  042%=      5-min Rain = 0
KAM1 132124Z 19023KT 29/14 A3005 RMK A01 T02900143  RH  041%=      5-min Rain = 0
KAM1 132125Z 20020KT 29/14 A3005 RMK A01 T02900143  RH  041%=      5-min Rain = 0
KAM1 132126Z 19018KT 29/14 A3005 RMK A01 T02890141  RH  040%=      5-min Rain = 0
KAM1 132127Z 19018G23KT 29/14 A3005 RMK A01 T02880142  RH  041%=      5-min Rain = 0
KAM1 132128Z 18021G27KT 29/14 A3005 RMK A01 T02880143  RH  041%=      5-min Rain = 0
KAM1 132129Z 19020KT 29/14 A3005 RMK A01 T02870140  RH  041%=      5-min Rain = 0
KAM1 132130Z 20018KT 29/14 A3005 RMK A01 T02870142  RH  041%=      5-min Rain = 0
KAM1 132131Z 20017KT 29/15 A3005 RMK A01 T02880147  RH  042%=      5-min Rain = 0
KAM1 132132Z 20017KT 29/15 A3005 RMK A01 T02910148  RH  042%=      5-min Rain = 0
KAM1 132133Z 19019KT 29/15 A3005 RMK A01 T02930147  RH  041%=      5-min Rain = 0
KAM1 132134Z 19016G21KT 29/15 A3005 RMK A01 T02930147  RH  041%=      5-min Rain = 0
KAM1 132135Z 19018G23KT 29/14 A3005 RMK A01 T02930144  RH  040%=      5-min Rain = 0
KAM1 132136Z 19018G23KT 29/14 A3004 RMK A01 T02900138  RH  039%=      5-min Rain = 0
KAM1 132137Z 18017KT 29/14 A3004 RMK A01 T02890141  RH  040%=      5-min Rain = 0
KAM1 132138Z 19018KT 29/14 A3004 RMK A01 T02890143  RH  041%=      5-min Rain = 0
KAM1 132139Z 18019KT 29/14 A3004 RMK A01 T02900143  RH  041%=      5-min Rain = 0
KAM1 132140Z 19022G27KT 29/14 A3004 RMK A01 T02910142  RH  040%=      5-min Rain = 0
KAM1 132141Z 19017KT 29/14 A3004 RMK A01 T02900142  RH  040%=      5-min Rain = 0
KAM1 132142Z 19018KT 29/14 A3004 RMK A01 T02900143  RH  041%=      5-min Rain = 0
KAM1 132143Z 19015G21KT 29/14 A3004 RMK A01 T02900142  RH  040%=      5-min Rain = 0
KAM1 132144Z 19021G26KT 29/15 A3004 RMK A01 T02900145  RH  041%=      5-min Rain = 0
KAM1 132145Z 21019G25KT 29/15 A3004 RMK A01 T02890145  RH  041%=      5-min Rain = 0
KAM1 132146Z 20018G23KT 29/14 A3004 RMK A01 T02890142  RH  041%=      5-min Rain = 0
KAM1 132147Z 21014G20KT 29/15 A3004 RMK A01 T02890147  RH  042%=      5-min Rain = 0
KAM1 132148Z 20013G19KT 29/15 A3004 RMK A01 T02900148  RH  042%=      5-min Rain = 0
KAM1 132149Z 19012G18KT 29/16 A3004 RMK A01 T02920156  RH  044%=      5-min Rain = 0
KAM1 132150Z 18018KT 29/15 A3003 RMK A01 T02930148  RH  041%=      5-min Rain = 0
KAM1 132151Z 18018G23KT 29/14 A3003 RMK A01 T02940144  RH  040%=      5-min Rain = 0
KAM1 132152Z 18019KT 29/14 A3003 RMK A01 T02920140  RH  039%=      5-min Rain = 0
KAM1 132153Z 19018KT 29/14 A3003 RMK A01 T02900142  RH  040%=      5-min Rain = 0
KAM1 132154Z 20018G24KT 29/15 A3003 RMK A01 T02900145  RH  041%=      5-min Rain = 0
KAM1 132155Z 19016KT 29/15 A3003 RMK A01 T02900148  RH  042%=      5-min Rain = 0
KAM1 132156Z 18019G24KT 29/15 A3003 RMK A01 T02910145  RH  041%=      5-min Rain = 0
KAM1 132157Z 18019G25KT 29/14 A3003 RMK A01 T02920143  RH  040%=      5-min Rain = 0
KAM1 132158Z 18020KT 29/14 A3003 RMK A01 T02920144  RH  040%=      5-min Rain = 0
KAM1 132159Z 19020KT 29/14 A3003 RMK A01 T02920144  RH  040%=      5-min Rain = 0
KAM1 132200Z 19020KT 29/14 A3003 RMK A01 T02900142  RH  040%=      5-min Rain = 0
KAM1 132201Z 18017G23KT 29/14 A3003 RMK A01 T02890140  RH  040%=      5-min Rain = 0
KAM1 132202Z 18014KT 29/15 A3003 RMK A01 T02880145  RH  042%=      5-min Rain = 0
KAM1 132203Z 18016KT 29/15 A3003 RMK A01 T02880147  RH  042%=      5-min Rain = 0
KAM1 132204Z 18019G24KT 29/14 A3002 RMK A01 T02880144  RH  041%=      5-min Rain = 0
KAM1 132205Z 17019KT 29/14 A3002 RMK A01 T02880143  RH  041%=      5-min Rain = 0
KAM1 132206Z 18017KT 29/14 A3002 RMK A01 T02890143  RH  041%=      5-min Rain = 0
KAM1 132207Z 18022G27KT 29/14 A3002 RMK A01 T02900142  RH  041%=      5-min Rain = 0
KAM1 132208Z 18017KT 29/15 A3002 RMK A01 T02900146  RH  041%=      5-min Rain = 0
KAM1 132209Z 18019KT 29/14 A3002 RMK A01 T02920144  RH  041%=      5-min Rain = 0
KAM1 132210Z 18020G25KT 29/14 A3002 RMK A01 T02920143  RH  040%=      5-min Rain = 0
KAM1 132211Z 18021KT 29/14 A3002 RMK A01 T02920142  RH  040%=      5-min Rain = 0
KAM1 132212Z 18016KT 29/14 A3002 RMK A01 T02910144  RH  041%=      5-min Rain = 0
KAM1 132213Z 19018G24KT 29/15 A3002 RMK A01 T02920146  RH  041%=      5-min Rain = 0
KAM1 132214Z 19020KT 29/14 A3002 RMK A01 T02930144  RH  040%=      5-min Rain = 0
KAM1 132215Z 20019KT 29/14 A3002 RMK A01 T02920141  RH  040%=      5-min Rain = 0
KAM1 132216Z 19014KT 29/14 A3002 RMK A01 T02880143  RH  041%=      5-min Rain = 0
KAM1 132217Z 19018KT 29/14 A3002 RMK A01 T02860144  RH  042%=      5-min Rain = 0
KAM1 132218Z 19020G26KT 29/14 A3002 RMK A01 T02860144  RH  042%=      5-min Rain = 0
KAM1 132219Z 19021KT 29/14 A3002 RMK A01 T02890140  RH  040%=      5-min Rain = 0
KAM1 132220Z 19020KT 29/14 A3002 RMK A01 T02910142  RH  040%=      5-min Rain = 0
KAM1 132221Z 19021G27KT 29/14 A3002 RMK A01 T02920142  RH  040%=      5-min Rain = 0
KAM1 132222Z 19017G23KT 29/14 A3002 RMK A01 T02930143  RH  040%=      5-min Rain = 0
KAM1 132223Z 20014KT 29/15 A3002 RMK A01 T02940149  RH  041%=      5-min Rain = 0
KAM1 132224Z 19018KT 30/15 A3002 RMK A01 T02950148  RH  041%=      5-min Rain = 0
KAM1 132225Z 19020G26KT 30/15 A3001 RMK A01 T02960146  RH  040%=      5-min Rain = 0
KAM1 132226Z 19019KT 30/14 A3001 RMK A01 T02960143  RH  039%=      5-min Rain = 0
KAM1 132227Z 19016G21KT 30/15 A3001 RMK A01 T02950146  RH  040%=      5-min Rain = 0
KAM1 132228Z 18019KT 30/14 A3001 RMK A01 T02950144  RH  040%=      5-min Rain = 0
KAM1 132229Z 18013KT 29/15 A3001 RMK A01 T02940147  RH  041%=      5-min Rain = 0
KAM1 132230Z 18018KT 29/15 A3001 RMK A01 T02940149  RH  041%=      5-min Rain = 0
KAM1 132231Z 18017KT 30/15 A3001 RMK A01 T02950145  RH  040%=      5-min Rain = 0
KAM1 132232Z 18020KT 30/14 A3001 RMK A01 T02950144  RH  040%=      5-min Rain = 0
KAM1 132233Z 18022G27KT 30/14 A3001 RMK A01 T02950140  RH  039%=      5-min Rain = 0
KAM1 132234Z 19018G23KT 29/14 A3001 RMK A01 T02940139  RH  039%=      5-min Rain = 0
KAM1 132235Z 18020KT 29/14 A3001 RMK A01 T02930141  RH  040%=      5-min Rain = 0
KAM1 132236Z 19021KT 29/14 A3001 RMK A01 T02930137  RH  038%=      5-min Rain = 0
KAM1 132237Z 19020KT 29/14 A3001 RMK A01 T02920137  RH  039%=      5-min Rain = 0
KAM1 132238Z 19019KT 29/14 A3001 RMK A01 T02910137  RH  039%=      5-min Rain = 0
KAM1 132239Z 19019G24KT 29/14 A3001 RMK A01 T02910140  RH  040%=      5-min Rain = 0
KAM1 132240Z 19019KT 29/14 A3001 RMK A01 T02910142  RH  040%=      5-min Rain = 0
KAM1 132241Z 19017KT 29/14 A3001 RMK A01 T02920144  RH  041%=      5-min Rain = 0
KAM1 132242Z 19018G23KT 29/14 A3001 RMK A01 T02930144  RH  040%=      5-min Rain = 0
KAM1 132243Z 19017KT 29/14 A3001 RMK A01 T02930140  RH  039%=      5-min Rain = 0
KAM1 132244Z 18019KT 29/14 A3001 RMK A01 T02930141  RH  039%=      5-min Rain = 0
KAM1 132245Z 19018KT 29/14 A3001 RMK A01 T02920140  RH  040%=      5-min Rain = 0
KAM1 132246Z 18017KT 29/14 A3001 RMK A01 T02920142  RH  040%=      5-min Rain = 0
KAM1 132247Z 18021G26KT 29/14 A3001 RMK A01 T02920140  RH  039%=      5-min Rain = 0
KAM1 132248Z 19019G24KT 29/14 A3001 RMK A01 T02920138  RH  039%=      5-min Rain = 0
KAM1 132249Z 19018G24KT 29/14 A3001 RMK A01 T02920141  RH  040%=      5-min Rain = 0
KAM1 132250Z 19018KT 29/14 A30 RMK A01 T02930139  RH  039%=      5-min Rain = 0
KAM1 132251Z 18019G25KT 29/14 A3001 RMK A01 T02940140  RH  039%=      5-min Rain = 0
KAM1 132252Z 18021KT 29/14 A3001 RMK A01 T02940138  RH  038%=      5-min Rain = 0
KAM1 132253Z 19017KT 29/14 A30 RMK A01 T02940139  RH  039%=      5-min Rain = 0
KAM1 132254Z 19017KT 29/14 A30 RMK A01 T02930143  RH  040%=      5-min Rain = 0
KAM1 132255Z 19021KT 29/14 A30 RMK A01 T02940139  RH  039%=      5-min Rain = 0
KAM1 132256Z 19019KT 29/14 A30 RMK A01 T02940140  RH  039%=      5-min Rain = 0
KAM1 132257Z 19015KT 29/14 A30 RMK A01 T02940141  RH  039%=      5-min Rain = 0
KAM1 132258Z 18016G22KT 30/15 A30 RMK A01 T02950145  RH  040%=      5-min Rain = 0
KAM1 132259Z 18021G26KT 30/14 A30 RMK A01 T02950142  RH  039%=      5-min Rain = 0
KAM1 132300Z 18022G27KT 30/14 A30 RMK A01 T02950139  RH  038%=      5-min Rain = 0
KAM1 132301Z 19019G26KT 29/14 A30 RMK A01 T02940138  RH  038%=      5-min Rain = 0
KAM1 132302Z 19019KT 29/14 A30 RMK A01 T02940141  RH  039%=      5-min Rain = 0
KAM1 132303Z 19017KT 29/14 A30 RMK A01 T02940142  RH  040%=      5-min Rain = 0
KAM1 132304Z 19015KT 29/15 A30 RMK A01 T02940145  RH  040%=      5-min Rain = 0
KAM1 132305Z 19021KT 29/14 A30 RMK A01 T02940141  RH  039%=      5-min Rain = 0
KAM1 132306Z 19016G21KT 29/14 A30 RMK A01 T02940140  RH  039%=      5-min Rain = 0
KAM1 132307Z 18018KT 29/14 A30 RMK A01 T02930142  RH  040%=      5-min Rain = 0
KAM1 132308Z 18017G22KT 29/14 A30 RMK A01 T02920140  RH  040%=      5-min Rain = 0
KAM1 132309Z 18019KT 29/14 A30 RMK A01 T02910140  RH  040%=      5-min Rain = 0
KAM1 132310Z 18019KT 29/14 A30 RMK A01 T02900138  RH  039%=      5-min Rain = 0
KAM1 132311Z 18023G28KT 29/14 A30 RMK A01 T02900136  RH  039%=      5-min Rain = 0
KAM1 132312Z 20020G25KT 29/14 A30 RMK A01 T02890137  RH  039%=      5-min Rain = 0
KAM1 132313Z 18016G21KT 29/14 A30 RMK A01 T02900141  RH  040%=      5-min Rain = 0
KAM1 132314Z 17020KT 29/14 A2999 RMK A01 T02910142  RH  040%=      5-min Rain = 0
KAM1 132315Z 19016G22KT 29/14 A2999 RMK A01 T02920143  RH  040%=      5-min Rain = 0
KAM1 132316Z 18015KT 29/15 A2999 RMK A01 T02920145  RH  041%=      5-min Rain = 0
KAM1 132317Z 18015KT 29/15 A2999 RMK A01 T02920145  RH  041%=      5-min Rain = 0
KAM1 132318Z 18013KT 29/15 A2999 RMK A01 T02920148  RH  041%=      5-min Rain = 0
KAM1 132319Z 18014KT 29/15 A2999 RMK A01 T02920147  RH  041%=      5-min Rain = 0
KAM1 132320Z 19013G18KT 29/15 A2999 RMK A01 T02910147  RH  042%=      5-min Rain = 0
KAM1 132321Z 19019G25KT 29/14 A2999 RMK A01 T02900144  RH  041%=      5-min Rain = 0
KAM1 132322Z 18020KT 29/14 A2999 RMK A01 T02890139  RH  040%=      5-min Rain = 0
KAM1 132323Z 18021KT 29/14 A2999 RMK A01 T02890140  RH  040%=      5-min Rain = 0
KAM1 132324Z 18021G27KT 29/14 A2999 RMK A01 T02870138  RH  040%=      5-min Rain = 0
KAM1 132325Z 18019KT 29/14 A2999 RMK A01 T02850137  RH  040%=      5-min Rain = 0
KAM1 132326Z 18016G21KT 28/14 A2999 RMK A01 T02840138  RH  041%=      5-min Rain = 0
KAM1 132327Z 19013KT 28/14 A2999 RMK A01 T02830144  RH  043%=      5-min Rain = 0
KAM1 132328Z 17017G23KT 28/14 A2998 RMK A01 T02820140  RH  042%=      5-min Rain = 0
KAM1 132329Z 18019G24KT 28/14 A2998 RMK A01 T02810138  RH  042%=      5-min Rain = 0
KAM1 132330Z 18018G23KT 28/14 A2998 RMK A01 T02810137  RH  041%=      5-min Rain = 0
KAM1 132331Z 17018KT 28/14 A2998 RMK A01 T02820138  RH  041%=      5-min Rain = 0
KAM1 132332Z 18018KT 28/14 A2998 RMK A01 T02810138  RH  041%=      5-min Rain = 0
KAM1 132333Z 17018KT 28/14 A2998 RMK A01 T02810138  RH  042%=      5-min Rain = 0
KAM1 132334Z 17018KT 28/14 A2998 RMK A01 T02810138  RH  041%=      5-min Rain = 0
KAM1 132335Z 17015G21KT 28/14 A2998 RMK A01 T02810137  RH  041%=      5-min Rain = 0
KAM1 132336Z 18020KT 28/14 A2998 RMK A01 T02800137  RH  041%=      5-min Rain = 0
KAM1 132337Z 18019KT 28/14 A2998 RMK A01 T02800135  RH  041%=      5-min Rain = 0
KAM1 132338Z 18015G21KT 28/14 A2998 RMK A01 T02810137  RH  041%=      5-min Rain = 0
KAM1 132339Z 18016G21KT 28/14 A2998 RMK A01 T02810139  RH  042%=      5-min Rain = 0
KAM1 132340Z 18014G20KT 28/14 A2998 RMK A01 T02810139  RH  042%=      5-min Rain = 0
KAM1 132341Z 17017G23KT 28/14 A2998 RMK A01 T02800141  RH  042%=      5-min Rain = 0
KAM1 132342Z 18018KT 28/14 A2998 RMK A01 T02800137  RH  041%=      5-min Rain = 0
KAM1 132343Z 18016KT 28/14 A2998 RMK A01 T02800138  RH  042%=      5-min Rain = 0
KAM1 132344Z 18017G22KT 28/14 A2998 RMK A01 T02800140  RH  042%=      5-min Rain = 0
KAM1 132345Z 18021KT 28/14 A2998 RMK A01 T02800136  RH  041%=      5-min Rain = 0
KAM1 132346Z 18018KT 28/14 A2998 RMK A01 T02790135  RH  041%=      5-min Rain = 0
KAM1 132347Z 17014KT 28/14 A2998 RMK A01 T02800138  RH  042%=      5-min Rain = 0
KAM1 132348Z 17016G21KT 28/14 A2998 RMK A01 T02800140  RH  042%=      5-min Rain = 0
KAM1 132349Z 17018KT 28/14 A2997 RMK A01 T02790137  RH  042%=      5-min Rain = 0
KAM1 132350Z 18017G23KT 28/14 A2997 RMK A01 T02810138  RH  042%=      5-min Rain = 0
KAM1 132351Z 17019KT 28/14 A2997 RMK A01 T02820137  RH  041%=      5-min Rain = 0
KAM1 132352Z 17018KT 28/14 A2997 RMK A01 T02830137  RH  041%=      5-min Rain = 0
KAM1 132353Z 18015G20KT 28/14 A2997 RMK A01 T02840139  RH  041%=      5-min Rain = 0
KAM1 132354Z 18016KT 28/14 A2997 RMK A01 T02840140  RH  041%=      5-min Rain = 0
KAM1 132355Z 18016G22KT 28/14 A2997 RMK A01 T02840141  RH  042%=      5-min Rain = 0
KAM1 132356Z 17019KT 28/14 A2997 RMK A01 T02840139  RH  041%=      5-min Rain = 0
KAM1 132357Z 17019G24KT 28/14 A2997 RMK A01 T02840139  RH  041%=      5-min Rain = 0
KAM1 132358Z 18021KT 28/14 A2997 RMK A01 T02840136  RH  040%=      5-min Rain = 0
KAM1 132359Z 18018KT 28/14 A2997 RMK A01 T02840137  RH  040%=      5-min Rain = 0
KAM1 140000Z 17015KT 28/14 A2997 RMK A01 T02840140  RH  041%=      5-min Rain = 0
KAM1 140001Z 17012G18KT 28/15 A2997 RMK A01 T02820145  RH  043%=      5-min Rain = 0
KAM1 140002Z 17014KT 28/15 A2997 RMK A01 T02810145  RH  043%=      5-min Rain = 0
KAM1 140003Z 17017G25KT 28/14 A2997 RMK A01 T02800142  RH  043%=      5-min Rain = 0
KAM1 140004Z 18020KT 28/14 A2997 RMK A01 T02810137  RH  041%=      5-min Rain = 0
KAM1 140005Z 18017KT 28/14 A2997 RMK A01 T02820139  RH  042%=      5-min Rain = 0
KAM1 140006Z 18013KT 28/14 A2997 RMK A01 T02820141  RH  042%=      5-min Rain = 0
KAM1 140007Z 18013KT 28/14 A2997 RMK A01 T02820143  RH  043%=      5-min Rain = 0
KAM1 140008Z 18014KT 28/14 A2997 RMK A01 T02810143  RH  043%=      5-min Rain = 0
KAM1 140009Z 17013G18KT 28/14 A2997 RMK A01 T02800144  RH  043%=      5-min Rain = 0
KAM1 140010Z 17014KT 28/14 A2997 RMK A01 T02790143  RH  043%=      5-min Rain = 0
KAM1 140011Z 18011KT 28/15 A2997 RMK A01 T02790145  RH  044%=      5-min Rain = 0
KAM1 140012Z 18012KT 28/14 A2996 RMK A01 T02780144  RH  044%=      5-min Rain = 0
KAM1 140013Z 17012G17KT 28/15 A2996 RMK A01 T02780145  RH  044%=      5-min Rain = 0
KAM1 140014Z 17018KT 28/14 A2996 RMK A01 T02780142  RH  043%=      5-min Rain = 0
KAM1 140015Z 17018KT 28/14 A2996 RMK A01 T02800140  RH  042%=      5-min Rain = 0
KAM1 140016Z 17018KT 28/14 A2996 RMK A01 T02820141  RH  042%=      5-min Rain = 0
KAM1 140017Z 17017KT 28/14 A2996 RMK A01 T02830141  RH  042%=      5-min Rain = 0
KAM1 140018Z 17018KT 28/14 A2996 RMK A01 T02840141  RH  042%=      5-min Rain = 0
KAM1 140019Z 17018KT 28/14 A2996 RMK A01 T02840141  RH  041%=      5-min Rain = 0
KAM1 140020Z 17018KT 28/14 A2996 RMK A01 T02840142  RH  042%=      5-min Rain = 0
KAM1 140021Z 17017KT 29/14 A2996 RMK A01 T02850143  RH  042%=      5-min Rain = 0
KAM1 140022Z 17019KT 29/14 A2996 RMK A01 T02850140  RH  041%=      5-min Rain = 0
KAM1 140023Z 17017KT 29/14 A2996 RMK A01 T02850141  RH  041%=      5-min Rain = 0
KAM1 140024Z 17021KT 29/14 A2996 RMK A01 T02850142  RH  042%=      5-min Rain = 0
KAM1 140025Z 18021G26KT 28/14 A2996 RMK A01 T02840139  RH  041%=      5-min Rain = 0
KAM1 140026Z 18020G25KT 28/14 A2996 RMK A01 T02830140  RH  041%=      5-min Rain = 0
KAM1 140027Z 18022KT 28/14 A2996 RMK A01 T02830139  RH  041%=      5-min Rain = 0
KAM1 140028Z 17019KT 28/14 A2996 RMK A01 T02820139  RH  042%=      5-min Rain = 0
KAM1 140029Z 18016KT 28/14 A2996 RMK A01 T02810141  RH  042%=      5-min Rain = 0
KAM1 140030Z 17016KT 28/14 A2996 RMK A01 T02800141  RH  043%=      5-min Rain = 0
KAM1 140031Z 17016G21KT 28/14 A2996 RMK A01 T02790142  RH  043%=      5-min Rain = 0
KAM1 140032Z 17015KT 28/14 A2996 RMK A01 T02780144  RH  044%=      5-min Rain = 0
KAM1 140033Z 17014KT 28/14 A2996 RMK A01 T02770143  RH  044%=      5-min Rain = 0
KAM1 140034Z 17016KT 28/14 A2996 RMK A01 T02760143  RH  044%=      5-min Rain = 0
KAM1 140035Z 17016KT 28/14 A2996 RMK A01 T02760142  RH  044%=      5-min Rain = 0
KAM1 140036Z 17014KT 28/14 A2996 RMK A01 T02750142  RH  044%=      5-min Rain = 0
KAM1 140037Z 17016KT 28/14 A2996 RMK A01 T02750142  RH  044%=      5-min Rain = 0
KAM1 140038Z 17014KT 28/14 A2996 RMK A01 T02750141  RH  044%=      5-min Rain = 0
KAM1 140039Z 18016KT 28/14 A2996 RMK A01 T02750141  RH  044%=      5-min Rain = 0
KAM1 140040Z 17018KT 28/14 A2996 RMK A01 T02750140  RH  043%=      5-min Rain = 0
KAM1 140041Z 17017KT 28/14 A2996 RMK A01 T02760139  RH  043%=      5-min Rain = 0
KAM1 140042Z 17019KT 28/14 A2996 RMK A01 T02770138  RH  043%=      5-min Rain = 0
KAM1 140043Z 17018G23KT 28/14 A2996 RMK A01 T02770137  RH  042%=      5-min Rain = 0
KAM1 140044Z 17021G26KT 28/14 A2996 RMK A01 T02770137  RH  042%=      5-min Rain = 0
KAM1 140045Z 17019G24KT 28/14 A2996 RMK A01 T02770137  RH  042%=      5-min Rain = 0
KAM1 140046Z 17017KT 28/14 A2996 RMK A01 T02770138  RH  042%=      5-min Rain = 0
KAM1 140047Z 18021KT 28/14 A2996 RMK A01 T02760137  RH  042%=      5-min Rain = 0
KAM1 140048Z 17017G23KT 28/14 A2996 RMK A01 T02760137  RH  042%=      5-min Rain = 0
KAM1 140049Z 17019KT 28/14 A2996 RMK A01 T02760137  RH  042%=      5-min Rain = 0
KAM1 140050Z 17016KT 28/14 A2996 RMK A01 T02760138  RH  043%=      5-min Rain = 0
KAM1 140051Z 18017KT 28/14 A2996 RMK A01 T02760137  RH  043%=      5-min Rain = 0
KAM1 140052Z 17017KT 28/14 A2996 RMK A01 T02760136  RH  042%=      5-min Rain = 0
KAM1 140053Z 18018KT 28/14 A2996 RMK A01 T02760136  RH  042%=      5-min Rain = 0
KAM1 140054Z 18019KT 28/14 A2996 RMK A01 T02760136  RH  042%=      5-min Rain = 0
KAM1 140055Z 17017G22KT 28/14 A2996 RMK A01 T02750135  RH  042%=      5-min Rain = 0
KAM1 140056Z 18018KT 28/14 A2996 RMK A01 T02750136  RH  042%=      5-min Rain = 0
KAM1 140057Z 17016KT 28/14 A2996 RMK A01 T02750136  RH  043%=      5-min Rain = 0
KAM1 140058Z 17017G22KT 27/14 A2996 RMK A01 T02740137  RH  043%=      5-min Rain = 0
KAM1 140059Z 17015G20KT 27/14 A2996 RMK A01 T02730137  RH  043%=      5-min Rain = 0
KAM1 140100Z 17018G23KT 27/14 A2996 RMK A01 T02730136  RH  043%=      5-min Rain = 0
KAM1 140101Z 17018KT 27/14 A2996 RMK A01 T02730137  RH  043%=      5-min Rain = 0
KAM1 140102Z 17016G21KT 27/14 A2996 RMK A01 T02720137  RH  043%=      5-min Rain = 0
KAM1 140103Z 17015KT 27/14 A2996 RMK A01 T02710138  RH  044%=      5-min Rain = 0
KAM1 140104Z 17015KT 27/14 A2996 RMK A01 T02700138  RH  044%=      5-min Rain = 0
KAM1 140105Z 17014KT 27/14 A2996 RMK A01 T02700138  RH  044%=      5-min Rain = 0
KAM1 140106Z 17015KT 27/14 A2995 RMK A01 T02690138  RH  044%=      5-min Rain = 0
KAM1 140107Z 17015G20KT 27/14 A2995 RMK A01 T02680138  RH  045%=      5-min Rain = 0
KAM1 140108Z 17016KT 27/14 A2995 RMK A01 T02680138  RH  045%=      5-min Rain = 0
KAM1 140109Z 17016G22KT 27/14 A2995 RMK A01 T02670137  RH  045%=      5-min Rain = 0
KAM1 140110Z 17017KT 27/14 A2995 RMK A01 T02670137  RH  044%=      5-min Rain = 0
KAM1 140111Z 17016G21KT 27/14 A2995 RMK A01 T02670136  RH  044%=      5-min Rain = 0
KAM1 140112Z 17015G20KT 27/14 A2995 RMK A01 T02670136  RH  044%=      5-min Rain = 0
KAM1 140113Z 17015KT 27/14 A2995 RMK A01 T02670137  RH  045%=      5-min Rain = 0
KAM1 140114Z 17014KT 27/14 A2995 RMK A01 T02660137  RH  045%=      5-min Rain = 0
KAM1 140115Z 17015KT 27/14 A2995 RMK A01 T02660137  RH  045%=      5-min Rain = 0
KAM1 140116Z 17019G24KT 27/14 A2995 RMK A01 T02650136  RH  045%=      5-min Rain = 0
KAM1 140117Z 17017G22KT 27/14 A2995 RMK A01 T02660135  RH  044%=      5-min Rain = 0
KAM1 140118Z 17018G24KT 27/14 A2995 RMK A01 T02660135  RH  044%=      5-min Rain = 0
KAM1 140119Z 17019KT 27/13 A2995 RMK A01 T02660134  RH  044%=      5-min Rain = 0
KAM1 140120Z 17017KT 27/13 A2995 RMK A01 T02670134  RH  044%=      5-min Rain = 0
KAM1 140121Z 17017KT 27/14 A2994 RMK A01 T02660135  RH  044%=      5-min Rain = 0
KAM1 140122Z 17016KT 27/14 A2994 RMK A01 T02660135  RH  045%=      5-min Rain = 0
KAM1 140123Z 16017KT 27/14 A2994 RMK A01 T02650135  RH  045%=      5-min Rain = 0
KAM1 140124Z 16015G20KT 26/13 A2994 RMK A01 T02640134  RH  045%=      5-min Rain = 0
KAM1 140125Z 16016KT 26/14 A2994 RMK A01 T02640135  RH  045%=      5-min Rain = 0
KAM1 140126Z 16018KT 26/14 A2994 RMK A01 T02640135  RH  045%=      5-min Rain = 0
KAM1 140127Z 16017G22KT 26/13 A2994 RMK A01 T02640134  RH  045%=      5-min Rain = 0
KAM1 140128Z 16015KT 27/14 A2994 RMK A01 T02650135  RH  045%=      5-min Rain = 0
KAM1 140129Z 16016KT 26/14 A2994 RMK A01 T02640136  RH  045%=      5-min Rain = 0
KAM1 140130Z 16018G23KT 26/14 A2994 RMK A01 T02630136  RH  045%=      5-min Rain = 0
KAM1 140131Z 16019KT 26/14 A2994 RMK A01 T02630135  RH  045%=      5-min Rain = 0
KAM1 140132Z 16015G20KT 26/14 A2994 RMK A01 T02630136  RH  045%=      5-min Rain = 0
KAM1 140133Z 16019KT 26/14 A2994 RMK A01 T02630136  RH  046%=      5-min Rain = 0
KAM1 140134Z 16017KT 26/14 A2994 RMK A01 T02630135  RH  045%=      5-min Rain = 0
KAM1 140135Z 16015KT 26/14 A2994 RMK A01 T02630136  RH  046%=      5-min Rain = 0
KAM1 140136Z 16019G24KT 26/14 A2994 RMK A01 T02620136  RH  046%=      5-min Rain = 0
KAM1 140137Z 16019KT 26/14 A2994 RMK A01 T02620135  RH  046%=      5-min Rain = 0
KAM1 140138Z 16014KT 26/14 A2994 RMK A01 T02620136  RH  046%=      5-min Rain = 0
KAM1 140139Z 16015KT 26/14 A2994 RMK A01 T02610137  RH  046%=      5-min Rain = 0
KAM1 140140Z 16018KT 26/14 A2995 RMK A01 T02600136  RH  046%=      5-min Rain = 0
KAM1 140141Z 16016KT 26/14 A2995 RMK A01 T02600136  RH  046%=      5-min Rain = 0
KAM1 140142Z 15015KT 26/14 A2995 RMK A01 T02600137  RH  047%=      5-min Rain = 0
KAM1 140143Z 15014KT 26/14 A2995 RMK A01 T02600137  RH  047%=      5-min Rain = 0
KAM1 140144Z 16013KT 26/14 A2995 RMK A01 T02600138  RH  047%=      5-min Rain = 0
KAM1 140145Z 15015G20KT 26/14 A2995 RMK A01 T02590138  RH  047%=      5-min Rain = 0
KAM1 140146Z 16014KT 26/14 A2995 RMK A01 T02580138  RH  048%=      5-min Rain = 0
KAM1 140147Z 16015KT 26/14 A2995 RMK A01 T02580139  RH  048%=      5-min Rain = 0
KAM1 140148Z 16013KT 26/14 A2995 RMK A01 T02570139  RH  048%=      5-min Rain = 0
KAM1 140149Z 16012KT 26/14 A2996 RMK A01 T02570140  RH  048%=      5-min Rain = 0
KAM1 140150Z 15015G20KT 26/14 A2996 RMK A01 T02560140  RH  049%=      5-min Rain = 0
KAM1 140151Z 16014KT 26/14 A2996 RMK A01 T02560139  RH  049%=      5-min Rain = 0
KAM1 140152Z 16016KT 26/14 A2996 RMK A01 T02560140  RH  049%=      5-min Rain = 0
KAM1 140153Z 16016KT 26/14 A2996 RMK A01 T02560139  RH  048%=      5-min Rain = 0
KAM1 140154Z 16013KT 26/14 A2996 RMK A01 T02560140  RH  049%=      5-min Rain = 0
KAM1 140155Z 16013KT 26/14 A2996 RMK A01 T02560141  RH  049%=      5-min Rain = 0
KAM1 140156Z 16015KT 26/14 A2996 RMK A01 T02550140  RH  049%=      5-min Rain = 0
KAM1 140157Z 16016KT 26/14 A2996 RMK A01 T02550140  RH  049%=      5-min Rain = 0
KAM1 140158Z 16015KT 26/14 A2996 RMK A01 T02560140  RH  049%=      5-min Rain = 0
KAM1 140159Z 16014G19KT 26/14 A2997 RMK A01 T02560141  RH  049%=      5-min Rain = 0
KAM1 140200Z 16015G20KT 26/14 A2997 RMK A01 T02560141  RH  049%=      5-min Rain = 0
KAM1 140201Z 15016KT 26/14 A2997 RMK A01 T02560141  RH  049%=      5-min Rain = 0
KAM1 140202Z 16013KT 26/14 A2997 RMK A01 T02560141  RH  049%=      5-min Rain = 0
KAM1 140203Z 15014KT 26/14 A2997 RMK A01 T02560142  RH  049%=      5-min Rain = 0
KAM1 140204Z 16015KT 26/14 A2997 RMK A01 T02550142  RH  049%=      5-min Rain = 0
KAM1 140205Z 16015KT 26/14 A2997 RMK A01 T02550141  RH  049%=      5-min Rain = 0
KAM1 140206Z 16014KT 26/14 A2997 RMK A01 T02550142  RH  050%=      5-min Rain = 0
KAM1 140207Z 16013KT 26/14 A2997 RMK A01 T02550142  RH  050%=      5-min Rain = 0
KAM1 140208Z 16014KT 25/14 A2997 RMK A01 T02540142  RH  050%=      5-min Rain = 0
KAM1 140209Z 16015KT 25/14 A2997 RMK A01 T02540142  RH  050%=      5-min Rain = 0
KAM1 140210Z 16014G20KT 25/14 A2998 RMK A01 T02540141  RH  050%=      5-min Rain = 0
KAM1 140211Z 15014KT 26/14 A2998 RMK A01 T02550142  RH  049%=      5-min Rain = 0
KAM1 140212Z 16015G22KT 26/14 A2998 RMK A01 T02550143  RH  050%=      5-min Rain = 0
KAM1 140213Z 16016KT 26/14 A2998 RMK A01 T02550143  RH  050%=      5-min Rain = 0
KAM1 140214Z 16015KT 26/14 A2998 RMK A01 T02550142  RH  050%=      5-min Rain = 0
KAM1 140215Z 16015KT 26/14 A2998 RMK A01 T02550142  RH  050%=      5-min Rain = 0
KAM1 140216Z 16016KT 26/14 A2998 RMK A01 T02550142  RH  050%=      5-min Rain = 0
KAM1 140217Z 15014KT 26/14 A2998 RMK A01 T02550142  RH  050%=      5-min Rain = 0
KAM1 140218Z 16015KT 26/14 A2998 RMK A01 T02550143  RH  050%=      5-min Rain = 0
KAM1 140219Z 15014KT 26/14 A2998 RMK A01 T02550142  RH  050%=      5-min Rain = 0
KAM1 140220Z 16015G21KT 25/14 A2998 RMK A01 T02540143  RH  050%=      5-min Rain = 0
KAM1 140221Z 16017KT 25/14 A2998 RMK A01 T02540143  RH  050%=      5-min Rain = 0
KAM1 140222Z 15018G23KT 25/14 A2998 RMK A01 T02540142  RH  050%=      5-min Rain = 0
KAM1 140223Z 15017KT 26/14 A2999 RMK A01 T02550142  RH  050%=      5-min Rain = 0
KAM1 140224Z 16017G22KT 26/14 A2999 RMK A01 T02550142  RH  050%=      5-min Rain = 0
KAM1 140225Z 15013G19KT 26/14 A2999 RMK A01 T02550144  RH  050%=      5-min Rain = 0
KAM1 140226Z 15015KT 25/14 A2999 RMK A01 T02540143  RH  050%=      5-min Rain = 0
KAM1 140227Z 15013KT 25/14 A2999 RMK A01 T02540143  RH  050%=      5-min Rain = 0
KAM1 140228Z 16014G19KT 25/14 A2999 RMK A01 T02540143  RH  050%=      5-min Rain = 0
KAM1 140229Z 15015KT 25/14 A2999 RMK A01 T02530143  RH  051%=      5-min Rain = 0
KAM1 140230Z 15012KT 25/14 A2999 RMK A01 T02530143  RH  050%=      5-min Rain = 0
KAM1 140231Z 16014G21KT 25/14 A2999 RMK A01 T02530144  RH  051%=      5-min Rain = 0
KAM1 140232Z 16016KT 25/14 A2999 RMK A01 T02530143  RH  051%=      5-min Rain = 0
KAM1 140233Z 15017KT 25/14 A2999 RMK A01 T02530143  RH  050%=      5-min Rain = 0
KAM1 140234Z 15013G18KT 25/14 A2999 RMK A01 T02540143  RH  050%=      5-min Rain = 0
KAM1 140235Z 15015KT 25/14 A2999 RMK A01 T02540144  RH  051%=      5-min Rain = 0
KAM1 140236Z 15013KT 25/15 A2999 RMK A01 T02540145  RH  051%=      5-min Rain = 0
KAM1 140237Z 15015G20KT 25/15 A2999 RMK A01 T02530145  RH  051%=      5-min Rain = 0
KAM1 140238Z 15016KT 25/14 A2999 RMK A01 T02520144  RH  051%=      5-min Rain = 0
KAM1 140239Z 15012KT 25/15 A2999 RMK A01 T02520145  RH  051%=      5-min Rain = 0
KAM1 140240Z 14011KT 25/15 A30 RMK A01 T02520146  RH  052%=      5-min Rain = 0
KAM1 140241Z 15013KT 25/15 A2999 RMK A01 T02510146  RH  052%=      5-min Rain = 0
KAM1 140242Z 15014KT 25/15 A30 RMK A01 T02510146  RH  052%=      5-min Rain = 0
KAM1 140243Z 15012KT 25/15 A30 RMK A01 T02510146  RH  052%=      5-min Rain = 0
KAM1 140244Z 14014KT 25/15 A30 RMK A01 T02500146  RH  052%=      5-min Rain = 0
KAM1 140245Z 15013KT 25/15 A2999 RMK A01 T02500146  RH  053%=      5-min Rain = 0
KAM1 140246Z 15013KT 25/15 A2999 RMK A01 T02500147  RH  053%=      5-min Rain = 0
KAM1 140247Z 14013KT 25/15 A2999 RMK A01 T02490147  RH  053%=      5-min Rain = 0
KAM1 140248Z 15015KT 25/15 A2999 RMK A01 T02490147  RH  053%=      5-min Rain = 0
KAM1 140249Z 14013KT 25/15 A2999 RMK A01 T02490148  RH  053%=      5-min Rain = 0
KAM1 140250Z 14015KT 25/15 A2999 RMK A01 T02480148  RH  054%=      5-min Rain = 0
KAM1 140251Z 14015KT 25/15 A2999 RMK A01 T02480147  RH  054%=      5-min Rain = 0
KAM1 140252Z 14015KT 25/15 A2999 RMK A01 T02480147  RH  054%=      5-min Rain = 0
KAM1 140253Z 15015G21KT 25/15 A2999 RMK A01 T02480148  RH  054%=      5-min Rain = 0
KAM1 140254Z 15014KT 25/15 A2998 RMK A01 T02470147  RH  054%=      5-min Rain = 0
KAM1 140255Z 15014KT 25/15 A2998 RMK A01 T02470148  RH  054%=      5-min Rain = 0
KAM1 140256Z 15017KT 25/15 A2998 RMK A01 T02470148  RH  054%=      5-min Rain = 0
KAM1 140257Z 15014G19KT 25/15 A2998 RMK A01 T02470148  RH  054%=      5-min Rain = 0
KAM1 140258Z 15015KT 25/15 A2998 RMK A01 T02470149  RH  054%=      5-min Rain = 0
KAM1 140259Z 15014KT 25/15 A2998 RMK A01 T02460149  RH  055%=      5-min Rain = 0
KAM1 140300Z 15016KT 25/15 A2998 RMK A01 T02460149  RH  055%=      5-min Rain = 0
KAM1 140301Z 15015KT 25/15 A2998 RMK A01 T02450148  RH  055%=      5-min Rain = 0
KAM1 140302Z 15016KT 25/15 A2998 RMK A01 T02450148  RH  055%=      5-min Rain = 0
KAM1 140303Z 14015G21KT 25/15 A2998 RMK A01 T02450149  RH  055%=      5-min Rain = 0
KAM1 140304Z 15015KT 25/15 A2998 RMK A01 T02450149  RH  055%=      5-min Rain = 0
KAM1 140305Z 15017KT 25/15 A2998 RMK A01 T02450149  RH  055%=      5-min Rain = 0
KAM1 140306Z 15013KT 25/15 A2998 RMK A01 T02450149  RH  055%=      5-min Rain = 0
KAM1 140307Z 15012KT 25/15 A2998 RMK A01 T02450149  RH  055%=      5-min Rain = 0
KAM1 140308Z 15013G18KT 24/15 A2999 RMK A01 T02440150  RH  056%=      5-min Rain = 0
KAM1 140309Z 14013KT 24/15 A2999 RMK A01 T02430150  RH  056%=      5-min Rain = 0
KAM1 140310Z 15013G18KT 24/15 A2999 RMK A01 T02430150  RH  056%=      5-min Rain = 0
KAM1 140311Z 15014KT 24/15 A2999 RMK A01 T02430150  RH  056%=      5-min Rain = 0
KAM1 140312Z 15016KT 24/15 A30 RMK A01 T02430149  RH  056%=      5-min Rain = 0
KAM1 140313Z 15014KT 24/15 A30 RMK A01 T02430149  RH  056%=      5-min Rain = 0
KAM1 140314Z 15016KT 24/15 A30 RMK A01 T02430150  RH  056%=      5-min Rain = 0
KAM1 140315Z 15012KT 24/15 A30 RMK A01 T02430150  RH  056%=      5-min Rain = 0
KAM1 140316Z 15018KT 24/15 A30 RMK A01 T02430150  RH  056%=      5-min Rain = 0
KAM1 140317Z 15015KT 24/15 A30 RMK A01 T02430150  RH  056%=      5-min Rain = 0
KAM1 140318Z 15014KT 24/15 A30 RMK A01 T02430150  RH  056%=      5-min Rain = 0
KAM1 140319Z 15015KT 24/15 A30 RMK A01 T02430150  RH  056%=      5-min Rain = 0
KAM1 140320Z 15012KT 24/15 A30 RMK A01 T02420151  RH  057%=      5-min Rain = 0
KAM1 140321Z 14015G20KT 24/15 A30 RMK A01 T02410151  RH  057%=      5-min Rain = 0
KAM1 140322Z 14017KT 24/15 A30 RMK A01 T02410150  RH  057%=      5-min Rain = 0
KAM1 140323Z 14013G18KT 24/15 A30 RMK A01 T02420150  RH  057%=      5-min Rain = 0
KAM1 140324Z 14017KT 24/15 A30 RMK A01 T02420151  RH  057%=      5-min Rain = 0
KAM1 140325Z 15017KT 24/15 A30 RMK A01 T02420150  RH  057%=      5-min Rain = 0
KAM1 140326Z 14014KT 24/15 A30 RMK A01 T02420151  RH  057%=      5-min Rain = 0
KAM1 140327Z 14015G20KT 24/15 A30 RMK A01 T02420151  RH  057%=      5-min Rain = 0
KAM1 140328Z 14013KT 24/15 A30 RMK A01 T02410151  RH  057%=      5-min Rain = 0
KAM1 140329Z 14013KT 24/15 A30 RMK A01 T02410151  RH  057%=      5-min Rain = 0
KAM1 140330Z 14014KT 24/15 A30 RMK A01 T02400152  RH  057%=      5-min Rain = 0
KAM1 140331Z 14012KT 24/15 A30 RMK A01 T02400151  RH  058%=      5-min Rain = 0
KAM1 140332Z 14010G15KT 24/15 A3001 RMK A01 T02390152  RH  058%=      5-min Rain = 0
KAM1 140333Z 14012KT 24/15 A3001 RMK A01 T02380152  RH  058%=      5-min Rain = 0
KAM1 140334Z 14012KT 24/15 A3001 RMK A01 T02370152  RH  059%=      5-min Rain = 0
KAM1 140335Z 13012KT 24/15 A3001 RMK A01 T02370152  RH  059%=      5-min Rain = 0
KAM1 140336Z 14014G19KT 24/15 A3001 RMK A01 T02370152  RH  059%=      5-min Rain = 0
KAM1 140337Z 14014KT 24/15 A3001 RMK A01 T02370151  RH  059%=      5-min Rain = 0
KAM1 140338Z 14015KT 24/15 A3001 RMK A01 T02370151  RH  059%=      5-min Rain = 0
KAM1 140339Z 14012KT 24/15 A3001 RMK A01 T02370151  RH  059%=      5-min Rain = 0
KAM1 140340Z 15015KT 24/15 A3001 RMK A01 T02370152  RH  059%=      5-min Rain = 0
KAM1 140341Z 14012KT 24/15 A3002 RMK A01 T02370151  RH  059%=      5-min Rain = 0
KAM1 140342Z 14012KT 24/15 A3002 RMK A01 T02370152  RH  059%=      5-min Rain = 0
KAM1 140343Z 14011KT 24/15 A3002 RMK A01 T02370152  RH  059%=      5-min Rain = 0
KAM1 140344Z 14011KT 24/15 A3002 RMK A01 T02360153  RH  059%=      5-min Rain = 0
KAM1 140345Z 14012KT 24/15 A3002 RMK A01 T02350152  RH  060%=      5-min Rain = 0
KAM1 140346Z 14013KT 24/15 A3002 RMK A01 T02350152  RH  060%=      5-min Rain = 0
KAM1 140347Z 14013KT 24/15 A3002 RMK A01 T02350152  RH  060%=      5-min Rain = 0
KAM1 140348Z 14013KT 24/15 A3002 RMK A01 T02350152  RH  059%=      5-min Rain = 0
KAM1 140349Z 14014KT 24/15 A3002 RMK A01 T02350152  RH  059%=      5-min Rain = 0
KAM1 140350Z 14013KT 24/15 A3001 RMK A01 T02350152  RH  059%=      5-min Rain = 0
KAM1 140351Z 13012KT 24/15 A3001 RMK A01 T02350152  RH  060%=      5-min Rain = 0
KAM1 140352Z 14013KT 24/15 A3002 RMK A01 T02350152  RH  060%=      5-min Rain = 0
KAM1 140353Z 13012KT 24/15 A3002 RMK A01 T02350153  RH  060%=      5-min Rain = 0
KAM1 140354Z 13010KT 23/15 A3002 RMK A01 T02340152  RH  060%=      5-min Rain = 0
KAM1 140355Z 13012KT 23/15 A3002 RMK A01 T02340153  RH  060%=      5-min Rain = 0
KAM1 140356Z 13012KT 23/15 A3003 RMK A01 T02340152  RH  060%=      5-min Rain = 0
KAM1 140357Z 14011KT 24/15 A3003 RMK A01 T02350153  RH  060%=      5-min Rain = 0
KAM1 140358Z 13010KT 23/15 A3003 RMK A01 T02340153  RH  060%=      5-min Rain = 0
KAM1 140359Z 13010KT 23/15 A3003 RMK A01 T02340153  RH  060%=      5-min Rain = 0
KAM1 140400Z 14009KT 23/15 A3003 RMK A01 T02340153  RH  060%=      5-min Rain = 0
KAM1 140401Z 13010KT 23/15 A3003 RMK A01 T02330154  RH  061%=      5-min Rain = 0
KAM1 140402Z 13011KT 23/15 A3003 RMK A01 T02320153  RH  061%=      5-min Rain = 0
KAM1 140403Z 13009KT 23/15 A3003 RMK A01 T02330152  RH  061%=      5-min Rain = 0
KAM1 140404Z 13007KT 23/15 A3003 RMK A01 T02330153  RH  061%=      5-min Rain = 0
KAM1 140405Z 14009KT 23/15 A3004 RMK A01 T02320154  RH  061%=      5-min Rain = 0
KAM1 140406Z 14009KT 23/15 A3003 RMK A01 T02320154  RH  062%=      5-min Rain = 0
KAM1 140407Z 13009KT 23/15 A3003 RMK A01 T02310154  RH  062%=      5-min Rain = 0
KAM1 140408Z 13008KT 23/15 A3003 RMK A01 T02310154  RH  062%=      5-min Rain = 0
KAM1 140409Z 13010KT 23/15 A3004 RMK A01 T02310154  RH  062%=      5-min Rain = 0
KAM1 140410Z 13010KT 23/15 A3004 RMK A01 T02300153  RH  062%=      5-min Rain = 0
KAM1 140411Z 13011KT 23/15 A3004 RMK A01 T02310153  RH  062%=      5-min Rain = 0
KAM1 140412Z 13011KT 23/15 A3004 RMK A01 T02310153  RH  061%=      5-min Rain = 0
KAM1 140413Z 12009KT 23/15 A3004 RMK A01 T02310153  RH  061%=      5-min Rain = 0
KAM1 140414Z 12010KT 23/15 A3004 RMK A01 T02310154  RH  062%=      5-min Rain = 0
KAM1 140415Z 12008KT 23/15 A3004 RMK A01 T02310154  RH  062%=      5-min Rain = 0
KAM1 140416Z 13009KT 23/16 A3004 RMK A01 T02310155  RH  062%=      5-min Rain = 0
KAM1 140417Z 12009G14KT 23/16 A3004 RMK A01 T02310156  RH  063%=      5-min Rain = 0
KAM1 140418Z 12009KT 23/16 A3004 RMK A01 T02300155  RH  063%=      5-min Rain = 0
KAM1 140419Z 11009KT 23/16 A3004 RMK A01 T02300155  RH  063%=      5-min Rain = 0
KAM1 140420Z 12007KT 23/15 A3005 RMK A01 T02300154  RH  063%=      5-min Rain = 0
KAM1 140421Z 11005KT 23/16 A3005 RMK A01 T02290155  RH  063%=      5-min Rain = 0
KAM1 140422Z 10005KT 23/16 A3006 RMK A01 T02290155  RH  063%=      5-min Rain = 0
KAM1 140423Z 10007KT 23/16 A3006 RMK A01 T02290155  RH  063%=      5-min Rain = 0
KAM1 140424Z 10008KT 23/15 A3006 RMK A01 T02290154  RH  063%=      5-min Rain = 0
KAM1 140425Z 08007KT 23/15 A3006 RMK A01 T02290154  RH  063%=      5-min Rain = 0
KAM1 140426Z 06008KT 23/16 A3007 RMK A01 T02300155  RH  063%=      5-min Rain = 0
KAM1 140427Z 06009KT 23/16 A3007 RMK A01 T02290156  RH  063%=      5-min Rain = 0
KAM1 140428Z 04008KT 23/16 A3007 RMK A01 T02290156  RH  063%=      5-min Rain = 0
KAM1 140429Z 03009KT 23/16 A3008 RMK A01 T02280158  RH  065%=      5-min Rain = 0
KAM1 140430Z 02011KT 23/16 A3008 RMK A01 T02260160  RH  066%=      5-min Rain = 0
KAM1 140431Z 01012KT 22/16 A3009 RMK A01 T02240161  RH  068%=      5-min Rain = 0
KAM1 140432Z 01013KT 22/16 A3009 RMK A01 T02210163  RH  070%=      5-min Rain = 0
KAM1 140433Z 00016KT 22/17 A301 RMK A01 T02200166  RH  071%=      5-min Rain = 0
KAM1 140434Z 01017KT 22/17 A301 RMK A01 T02170167  RH  073%=      5-min Rain = 0
KAM1 140435Z 01021KT 21/16 A301 RMK A01 T02130160  RH  072%=      5-min Rain = 0
KAM1 140436Z 01021G27KT 21/15 A3011 RMK A01 T02080153  RH  071%=      5-min Rain = 0
KAM1 140437Z 01019KT 20/15 A3011 RMK A01 T02040150  RH  071%=      5-min Rain = 0
KAM1 140438Z 01020KT 20/15 A3011 RMK A01 T02000150  RH  073%=      5-min Rain = 0
KAM1 140439Z 01019KT 20/15 A3011 RMK A01 T01980149  RH  073%=      5-min Rain = 0
KAM1 140440Z 01016KT 20/15 A3012 RMK A01 T01970151  RH  075%=      5-min Rain = 0
KAM1 140441Z 02013G18KT 20/15 A3012 RMK A01 T01950152  RH  076%=      5-min Rain = 0
KAM1 140442Z 02014KT 19/15 A3012 RMK A01 T01940152  RH  077%=      5-min Rain = 0
KAM1 140443Z 02015KT 19/15 A3012 RMK A01 T01930152  RH  077%=      5-min Rain = 0
KAM1 140444Z 04014KT 20/16 A3012 RMK A01 T01960156  RH  078%=      5-min Rain = 0
KAM1 140445Z 04013KT 20/16 A3012 RMK A01 T01990158  RH  077%=      5-min Rain = 0
KAM1 140446Z 03012KT 20/16 A3012 RMK A01 T02000159  RH  077%=      5-min Rain = 0
KAM1 140447Z 03013KT 20/16 A3013 RMK A01 T01970158  RH  078%=      5-min Rain = 0
KAM1 140448Z 04013KT 20/16 A3013 RMK A01 T01950158  RH  079%=      5-min Rain = 0
KAM1 140449Z 03013KT 19/16 A3013 RMK A01 T01940159  RH  080%=      5-min Rain = 0
KAM1 140450Z 03012KT 19/16 A3013 RMK A01 T01930158  RH  080%=      5-min Rain = 0
KAM1 140451Z 02013KT 19/16 A3013 RMK A01 T01930159  RH  081%=      5-min Rain = 0
KAM1 140452Z 02013KT 19/16 A3013 RMK A01 T01930161  RH  082%=      5-min Rain = 0
KAM1 140453Z 02014KT 19/16 A3013 RMK A01 T01920162  RH  083%=      5-min Rain = 0
KAM1 140454Z 03016KT 19/16 A3013 RMK A01 T01910159  RH  082%=      5-min Rain = 0
KAM1 140455Z 02014KT 19/16 A3013 RMK A01 T01880156  RH  082%=      5-min Rain = 0.01
KAM1 140456Z 01014KT 18/16 A3013 RMK A01 T01840155  RH  083%=      5-min Rain = 0
KAM1 140457Z 02013KT 18/15 A3013 RMK A01 T01810153  RH  084%=      5-min Rain = 0
KAM1 140458Z 02012KT 18/15 A3013 RMK A01 T01790152  RH  084%=      5-min Rain = 0.01
KAM1 140459Z 02011KT 18/15 A3013 RMK A01 T01760153  RH  086%=      5-min Rain = 0

Page generated in 0.1379 seconds.